UAL903 KSFO-EGLL
Flight info
| Callsign | UAL903 |
|---|---|
| Flight time | 10h 6m |
| Altitude | 35000 |
| Route | SNTNA2 TIPRE Q126 INSLO DCT DTA DCT BFF/N0480F370 DCT FSD DCT KP84G DCT KP90K DCT SSM DCT YUY DCT MT/N0484F390 DCT SPOTE DCT DORYY/M084F390 DCT 58N050W 59N040W 59N030W 59N020W DCT GOMUP/N0483F390 DCT GINGA DCT KELLY L10 WAL UY53 NUGRA |
| Aircraft | B772/H-SDE2E3FGHIJ5LORVWXY/LB1D1 |
Departure
| Time | 2026-05-05 07:27 |
|---|---|
| Airport | San Francisco International Airport (KSFO) |
Arrival
| Time | 2026-05-05 17:33 |
|---|---|
| Airport | London Heathrow Airport (EGLL) |
| Time | Latitude | Longitude | Altitude | Speed | Heading |
|---|---|---|---|---|---|
| 2026-05-05 06:49 | 37.61773 | -122.39249 | 28 ft | 0 kts | 28° |
| 2026-05-05 07:08 | 37.61769 | -122.39252 | 16 ft | 3 kts | 28° |
| 2026-05-05 07:08 | 37.61746 | -122.39267 | 30 ft | 4 kts | 24° |
| 2026-05-05 07:08 | 37.61721 | -122.39278 | 30 ft | 4 kts | 9° |
| 2026-05-05 07:09 | 37.61699 | -122.39279 | 29 ft | 4 kts | 331° |
| 2026-05-05 07:09 | 37.61691 | -122.39271 | 30 ft | 0 kts | 298° |
| 2026-05-05 07:09 | 37.61701 | -122.39296 | 30 ft | 4 kts | 298° |
| 2026-05-05 07:09 | 37.61714 | -122.39326 | 30 ft | 4 kts | 298° |
| 2026-05-05 07:10 | 37.61724 | -122.39350 | 26 ft | 4 kts | 298° |
| 2026-05-05 07:10 | 37.61731 | -122.39368 | 26 ft | 0 kts | 298° |
| 2026-05-05 07:16 | 37.61738 | -122.39384 | 29 ft | 5 kts | 298° |
| 2026-05-05 07:16 | 37.61757 | -122.39430 | 29 ft | 9 kts | 298° |
| 2026-05-05 07:16 | 37.61806 | -122.39506 | 27 ft | 13 kts | 325° |
| 2026-05-05 07:17 | 37.61900 | -122.39536 | 28 ft | 16 kts | 1° |
| 2026-05-05 07:17 | 37.61993 | -122.39452 | 28 ft | 17 kts | 62° |
| 2026-05-05 07:17 | 37.62004 | -122.39396 | 28 ft | 4 kts | 87° |
| 2026-05-05 07:17 | 37.62011 | -122.39324 | 29 ft | 12 kts | 76° |
| 2026-05-05 07:18 | 37.62066 | -122.39218 | 29 ft | 16 kts | 34° |
| 2026-05-05 07:18 | 37.62159 | -122.39146 | 27 ft | 16 kts | 27° |
| 2026-05-05 07:18 | 37.62237 | -122.39057 | 29 ft | 16 kts | 66° |
| 2026-05-05 07:18 | 37.62259 | -122.38923 | 28 ft | 16 kts | 92° |
| 2026-05-05 07:19 | 37.62216 | -122.38799 | 28 ft | 16 kts | 119° |
| 2026-05-05 07:19 | 37.62165 | -122.38677 | 30 ft | 16 kts | 118° |
| 2026-05-05 07:19 | 37.62112 | -122.38557 | 28 ft | 16 kts | 120° |
| 2026-05-05 07:19 | 37.62063 | -122.38434 | 30 ft | 16 kts | 117° |
| 2026-05-05 07:20 | 37.62009 | -122.38315 | 25 ft | 16 kts | 122° |
| 2026-05-05 07:20 | 37.61955 | -122.38196 | 29 ft | 16 kts | 111° |
| 2026-05-05 07:20 | 37.61911 | -122.38071 | 28 ft | 16 kts | 117° |
| 2026-05-05 07:20 | 37.61861 | -122.37949 | 29 ft | 16 kts | 116° |
| 2026-05-05 07:21 | 37.61813 | -122.37814 | 29 ft | 18 kts | 111° |
| 2026-05-05 07:21 | 37.61766 | -122.37663 | 30 ft | 18 kts | 111° |
| 2026-05-05 07:21 | 37.61719 | -122.37513 | 28 ft | 18 kts | 115° |
| 2026-05-05 07:21 | 37.61660 | -122.37368 | 29 ft | 18 kts | 118° |
| 2026-05-05 07:22 | 37.61599 | -122.37226 | 29 ft | 18 kts | 118° |
| 2026-05-05 07:22 | 37.61540 | -122.37083 | 30 ft | 18 kts | 117° |
| 2026-05-05 07:22 | 37.61476 | -122.36943 | 30 ft | 18 kts | 125° |
| 2026-05-05 07:22 | 37.61393 | -122.36819 | 30 ft | 18 kts | 130° |
| 2026-05-05 07:23 | 37.61324 | -122.36683 | 28 ft | 18 kts | 118° |
| 2026-05-05 07:23 | 37.61264 | -122.36539 | 26 ft | 18 kts | 118° |
| 2026-05-05 07:23 | 37.61205 | -122.36396 | 28 ft | 18 kts | 117° |
| 2026-05-05 07:23 | 37.61145 | -122.36252 | 26 ft | 18 kts | 118° |
| 2026-05-05 07:24 | 37.61086 | -122.36109 | 30 ft | 18 kts | 118° |
| 2026-05-05 07:24 | 37.61054 | -122.35982 | 25 ft | 10 kts | 84° |
| 2026-05-05 07:24 | 37.61091 | -122.35912 | 27 ft | 10 kts | 38° |
| 2026-05-05 07:24 | 37.61154 | -122.35887 | 28 ft | 10 kts | 356° |
| 2026-05-05 07:25 | 37.61210 | -122.35931 | 28 ft | 10 kts | 306° |
| 2026-05-05 07:25 | 37.61232 | -122.35978 | 30 ft | 0 kts | 298° |
| 2026-05-05 07:26 | 37.61235 | -122.35985 | 30 ft | 7 kts | 297° |
| 2026-05-05 07:26 | 37.61320 | -122.36195 | 30 ft | 56 kts | 296° |
| 2026-05-05 07:26 | 37.61606 | -122.36872 | 27 ft | 118 kts | 297° |
| 2026-05-05 07:26 | 37.62074 | -122.37987 | 57 ft | 164 kts | 297° |
| 2026-05-05 07:27 | 37.62599 | -122.39292 | 672 ft | 160 kts | 297° |
| 2026-05-05 07:27 | 37.63122 | -122.40558 | 1340 ft | 167 kts | 298° |
| 2026-05-05 07:27 | 37.63720 | -122.41933 | 1573 ft | 190 kts | 298° |
| 2026-05-05 07:27 | 37.64397 | -122.43483 | 1778 ft | 213 kts | 298° |
| 2026-05-05 07:28 | 37.65147 | -122.45202 | 1970 ft | 234 kts | 298° |
| 2026-05-05 07:28 | 37.65949 | -122.47043 | 2435 ft | 243 kts | 298° |
| 2026-05-05 07:28 | 37.66774 | -122.48942 | 2999 ft | 249 kts | 298° |
| 2026-05-05 07:28 | 37.67648 | -122.50845 | 3570 ft | 252 kts | 307° |
| 2026-05-05 07:29 | 37.69062 | -122.52184 | 4016 ft | 262 kts | 340° |
| 2026-05-05 07:29 | 37.70867 | -122.52526 | 4561 ft | 266 kts | 357° |
| 2026-05-05 07:29 | 37.72745 | -122.52578 | 5066 ft | 272 kts | 357° |
| 2026-05-05 07:29 | 37.74628 | -122.52640 | 5794 ft | 269 kts | 357° |
| 2026-05-05 07:30 | 37.76485 | -122.52706 | 6528 ft | 266 kts | 358° |
| 2026-05-05 07:30 | 37.80120 | -122.51974 | 7387 ft | 275 kts | 35° |
| 2026-05-05 07:30 | 37.81401 | -122.50200 | 7973 ft | 275 kts | 59° |
| 2026-05-05 07:31 | 37.82212 | -122.48007 | 8395 ft | 279 kts | 65° |
| 2026-05-05 07:31 | 37.82997 | -122.45745 | 8894 ft | 282 kts | 65° |
| 2026-05-05 07:31 | 37.83786 | -122.43469 | 9436 ft | 283 kts | 65° |
| 2026-05-05 07:31 | 37.84492 | -122.41126 | 9976 ft | 285 kts | 69° |
| 2026-05-05 07:32 | 37.85137 | -122.38727 | 10279 ft | 295 kts | 70° |
| 2026-05-05 07:32 | 37.85801 | -122.36203 | 10380 ft | 310 kts | 70° |
| 2026-05-05 07:32 | 37.86498 | -122.33552 | 10495 ft | 325 kts | 70° |
| 2026-05-05 07:32 | 37.87234 | -122.30765 | 10636 ft | 342 kts | 70° |
| 2026-05-05 07:33 | 37.88008 | -122.27846 | 10797 ft | 358 kts | 70° |
| 2026-05-05 07:33 | 37.88814 | -122.24816 | 11211 ft | 367 kts | 70° |
| 2026-05-05 07:33 | 37.89633 | -122.21744 | 11802 ft | 371 kts | 69° |
| 2026-05-05 07:33 | 37.90461 | -122.18642 | 12538 ft | 371 kts | 69° |
| 2026-05-05 07:34 | 37.91287 | -122.15547 | 13267 ft | 372 kts | 69° |
| 2026-05-05 07:34 | 37.92116 | -122.12438 | 13934 ft | 373 kts | 68° |
| 2026-05-05 07:34 | 37.92947 | -122.09326 | 14523 ft | 374 kts | 68° |
| 2026-05-05 07:34 | 37.93781 | -122.06205 | 15122 ft | 374 kts | 68° |
| 2026-05-05 07:35 | 37.94612 | -122.03086 | 15707 ft | 374 kts | 68° |
| 2026-05-05 07:35 | 37.95445 | -121.99957 | 16274 ft | 375 kts | 69° |
| 2026-05-05 07:35 | 37.96278 | -121.96824 | 16773 ft | 376 kts | 69° |
| 2026-05-05 07:35 | 37.97103 | -121.93717 | 17273 ft | 378 kts | 69° |
| 2026-05-05 07:36 | 37.97942 | -121.90556 | 17768 ft | 379 kts | 69° |
| 2026-05-05 07:36 | 37.98779 | -121.87391 | 18283 ft | 379 kts | 69° |
| 2026-05-05 07:36 | 37.99621 | -121.84208 | 18710 ft | 381 kts | 69° |
| 2026-05-05 07:36 | 38.00467 | -121.81013 | 19064 ft | 384 kts | 69° |
| 2026-05-05 07:37 | 38.01322 | -121.77775 | 19400 ft | 388 kts | 69° |
| 2026-05-05 07:37 | 38.02181 | -121.74519 | 19789 ft | 390 kts | 69° |
| 2026-05-05 07:37 | 38.03042 | -121.71246 | 20189 ft | 392 kts | 69° |
| 2026-05-05 07:37 | 38.03908 | -121.67953 | 20559 ft | 395 kts | 70° |
| 2026-05-05 07:38 | 38.04776 | -121.64645 | 20951 ft | 397 kts | 70° |
| 2026-05-05 07:38 | 38.05652 | -121.61307 | 21317 ft | 400 kts | 70° |
| 2026-05-05 07:38 | 38.06530 | -121.57953 | 21712 ft | 402 kts | 70° |
| 2026-05-05 07:38 | 38.07413 | -121.54574 | 22116 ft | 404 kts | 70° |
| 2026-05-05 07:39 | 38.08297 | -121.51190 | 22505 ft | 406 kts | 70° |
| 2026-05-05 07:39 | 38.09188 | -121.47773 | 22896 ft | 408 kts | 70° |
| 2026-05-05 07:39 | 38.10081 | -121.44345 | 23275 ft | 410 kts | 70° |
| 2026-05-05 07:39 | 38.10979 | -121.40894 | 23648 ft | 412 kts | 70° |
| 2026-05-05 07:40 | 38.11881 | -121.37422 | 23975 ft | 414 kts | 70° |
| 2026-05-05 07:40 | 38.12784 | -121.33941 | 24289 ft | 416 kts | 70° |
| 2026-05-05 07:40 | 38.13691 | -121.30439 | 24609 ft | 418 kts | 70° |
| 2026-05-05 07:40 | 38.14600 | -121.26924 | 24930 ft | 420 kts | 70° |
| 2026-05-05 07:41 | 38.15511 | -121.23397 | 25231 ft | 422 kts | 70° |
| 2026-05-05 07:41 | 38.16436 | -121.19815 | 25279 ft | 431 kts | 70° |
| 2026-05-05 07:41 | 38.17375 | -121.16168 | 25333 ft | 438 kts | 70° |
| 2026-05-05 07:41 | 38.18331 | -121.12453 | 25385 ft | 445 kts | 70° |
| 2026-05-05 07:42 | 38.19298 | -121.08686 | 25482 ft | 450 kts | 70° |
| 2026-05-05 07:42 | 38.20271 | -121.04892 | 25694 ft | 452 kts | 70° |
| 2026-05-05 07:42 | 38.21135 | -121.01096 | 25940 ft | 454 kts | 75° |
| 2026-05-05 07:42 | 38.21787 | -120.97111 | 26180 ft | 455 kts | 77° |
| 2026-05-05 07:43 | 38.22311 | -120.93181 | 26418 ft | 457 kts | 78° |
| 2026-05-05 07:43 | 38.22809 | -120.89178 | 26626 ft | 458 kts | 79° |
| 2026-05-05 07:43 | 38.23310 | -120.85174 | 26822 ft | 460 kts | 78° |
| 2026-05-05 07:43 | 38.23830 | -120.81157 | 27033 ft | 461 kts | 78° |
| 2026-05-05 07:44 | 38.24370 | -120.77131 | 27227 ft | 462 kts | 78° |
| 2026-05-05 07:44 | 38.24922 | -120.73107 | 27428 ft | 462 kts | 77° |
| 2026-05-05 07:44 | 38.25482 | -120.69085 | 27746 ft | 461 kts | 77° |
| 2026-05-05 07:44 | 38.26043 | -120.65075 | 27953 ft | 461 kts | 77° |
| 2026-05-05 07:45 | 38.27178 | -120.56979 | 28155 ft | 466 kts | 77° |
| 2026-05-05 07:45 | 38.27742 | -120.52919 | 28402 ft | 465 kts | 77° |
| 2026-05-05 07:45 | 38.28303 | -120.48869 | 28690 ft | 464 kts | 77° |
| 2026-05-05 07:46 | 38.28861 | -120.44827 | 28942 ft | 463 kts | 77° |
| 2026-05-05 07:46 | 38.29420 | -120.40774 | 29025 ft | 466 kts | 77° |
| 2026-05-05 07:46 | 38.30353 | -120.33989 | 29091 ft | 471 kts | 77° |
| 2026-05-05 07:47 | 38.31482 | -120.25725 | 29181 ft | 475 kts | 77° |
| 2026-05-05 07:47 | 38.32046 | -120.21579 | 29308 ft | 475 kts | 77° |
| 2026-05-05 07:47 | 38.32607 | -120.17438 | 29509 ft | 474 kts | 77° |
| 2026-05-05 07:48 | 38.33166 | -120.13302 | 29695 ft | 474 kts | 77° |
| 2026-05-05 07:48 | 38.33723 | -120.09165 | 29848 ft | 474 kts | 77° |
| 2026-05-05 07:48 | 38.34278 | -120.05037 | 30011 ft | 473 kts | 77° |
| 2026-05-05 07:48 | 38.34832 | -120.00908 | 30180 ft | 472 kts | 77° |
| 2026-05-05 07:49 | 38.35383 | -119.96786 | 30352 ft | 472 kts | 77° |
| 2026-05-05 07:49 | 38.35932 | -119.92671 | 30532 ft | 470 kts | 77° |
| 2026-05-05 07:49 | 38.36470 | -119.88611 | 31193 ft | 458 kts | 77° |
| 2026-05-05 07:49 | 38.36991 | -119.84661 | 31839 ft | 448 kts | 77° |
| 2026-05-05 07:50 | 38.37505 | -119.80771 | 32329 ft | 443 kts | 77° |
| 2026-05-05 07:50 | 38.38016 | -119.76900 | 32658 ft | 442 kts | 77° |
| 2026-05-05 07:50 | 38.38526 | -119.73032 | 32887 ft | 443 kts | 77° |
| 2026-05-05 07:50 | 38.39037 | -119.69160 | 33143 ft | 443 kts | 77° |
| 2026-05-05 07:51 | 38.39544 | -119.65296 | 33442 ft | 441 kts | 77° |
| 2026-05-05 07:51 | 38.40049 | -119.61436 | 33709 ft | 441 kts | 77° |
| 2026-05-05 07:51 | 38.40550 | -119.57590 | 33993 ft | 440 kts | 77° |
| 2026-05-05 07:51 | 38.41050 | -119.53734 | 34148 ft | 441 kts | 77° |
| 2026-05-05 07:52 | 38.41545 | -119.49920 | 34261 ft | 443 kts | 77° |
| 2026-05-05 07:52 | 38.42048 | -119.46037 | 34408 ft | 444 kts | 78° |
| 2026-05-05 07:52 | 38.42549 | -119.42143 | 34553 ft | 446 kts | 78° |
| 2026-05-05 07:52 | 38.43052 | -119.38232 | 34687 ft | 447 kts | 78° |
| 2026-05-05 07:53 | 38.43554 | -119.34314 | 34802 ft | 449 kts | 78° |
| 2026-05-05 07:53 | 38.44058 | -119.30370 | 34861 ft | 452 kts | 78° |
| 2026-05-05 07:53 | 38.45072 | -119.22415 | 34909 ft | 456 kts | 78° |
| 2026-05-05 07:54 | 38.46080 | -119.14441 | 34909 ft | 454 kts | 78° |
| 2026-05-05 07:54 | 38.47080 | -119.06488 | 34905 ft | 453 kts | 78° |
| 2026-05-05 07:55 | 38.48072 | -118.98556 | 34922 ft | 452 kts | 78° |
| 2026-05-05 07:55 | 38.49059 | -118.90630 | 34916 ft | 453 kts | 78° |
| 2026-05-05 07:56 | 38.50042 | -118.82688 | 34932 ft | 453 kts | 78° |
| 2026-05-05 07:56 | 38.51022 | -118.74723 | 34946 ft | 455 kts | 79° |
| 2026-05-05 07:57 | 38.52001 | -118.66724 | 34948 ft | 457 kts | 79° |
| 2026-05-05 07:57 | 38.52977 | -118.58691 | 34942 ft | 459 kts | 79° |
| 2026-05-05 07:58 | 38.53951 | -118.50629 | 34945 ft | 460 kts | 79° |
| 2026-05-05 07:58 | 38.54923 | -118.42543 | 34931 ft | 461 kts | 79° |
| 2026-05-05 07:59 | 38.55890 | -118.34444 | 34913 ft | 462 kts | 79° |
| 2026-05-05 07:59 | 38.56856 | -118.26315 | 34895 ft | 463 kts | 79° |
| 2026-05-05 08:00 | 38.57817 | -118.18182 | 34875 ft | 463 kts | 79° |
| 2026-05-05 08:00 | 38.58775 | -118.10032 | 34888 ft | 464 kts | 80° |
| 2026-05-05 08:01 | 38.59731 | -118.01858 | 34891 ft | 465 kts | 80° |
| 2026-05-05 08:01 | 38.60683 | -117.93667 | 34879 ft | 466 kts | 80° |
| 2026-05-05 08:02 | 38.61630 | -117.85465 | 34881 ft | 467 kts | 80° |
| 2026-05-05 08:02 | 38.62573 | -117.77248 | 34878 ft | 467 kts | 81° |
| 2026-05-05 08:03 | 38.63512 | -117.69014 | 34872 ft | 468 kts | 81° |
| 2026-05-05 08:03 | 38.64445 | -117.60777 | 34871 ft | 468 kts | 81° |
| 2026-05-05 08:04 | 38.65374 | -117.52523 | 34879 ft | 469 kts | 81° |
| 2026-05-05 08:04 | 38.66298 | -117.44253 | 34857 ft | 470 kts | 81° |
| 2026-05-05 08:05 | 38.67218 | -117.35979 | 34862 ft | 470 kts | 81° |
| 2026-05-05 08:05 | 38.68142 | -117.27729 | 34852 ft | 471 kts | 80° |
| 2026-05-05 08:06 | 38.69344 | -117.19479 | 34861 ft | 472 kts | 78° |
| 2026-05-05 08:06 | 38.70654 | -117.11232 | 34853 ft | 473 kts | 78° |
| 2026-05-05 08:07 | 38.71934 | -117.02964 | 34856 ft | 474 kts | 79° |
| 2026-05-05 08:07 | 38.73179 | -116.94671 | 34850 ft | 475 kts | 79° |
| 2026-05-05 08:08 | 38.74410 | -116.86348 | 34853 ft | 476 kts | 79° |
| 2026-05-05 08:08 | 38.75637 | -116.78003 | 34849 ft | 477 kts | 79° |
| 2026-05-05 08:09 | 38.76863 | -116.69633 | 34841 ft | 478 kts | 80° |
| 2026-05-05 08:09 | 38.78087 | -116.61244 | 34845 ft | 479 kts | 80° |
| 2026-05-05 08:10 | 38.79307 | -116.52832 | 34848 ft | 481 kts | 80° |
| 2026-05-05 08:10 | 38.80526 | -116.44382 | 34840 ft | 482 kts | 80° |
| 2026-05-05 08:11 | 38.81742 | -116.35917 | 34837 ft | 483 kts | 80° |
| 2026-05-05 08:11 | 38.82955 | -116.27418 | 34838 ft | 485 kts | 81° |
| 2026-05-05 08:12 | 38.84164 | -116.18905 | 34834 ft | 486 kts | 81° |
| 2026-05-05 08:12 | 38.85362 | -116.10418 | 34829 ft | 487 kts | 81° |
| 2026-05-05 08:13 | 38.86566 | -116.01849 | 34826 ft | 488 kts | 81° |
| 2026-05-05 08:13 | 38.87764 | -115.93272 | 34824 ft | 489 kts | 81° |
| 2026-05-05 08:14 | 38.88958 | -115.84672 | 34818 ft | 490 kts | 81° |
| 2026-05-05 08:14 | 38.90147 | -115.76060 | 34815 ft | 490 kts | 81° |
| 2026-05-05 08:15 | 38.91332 | -115.67430 | 34814 ft | 491 kts | 81° |
| 2026-05-05 08:15 | 38.92514 | -115.58781 | 34807 ft | 492 kts | 82° |
| 2026-05-05 08:16 | 38.93691 | -115.50107 | 34809 ft | 493 kts | 82° |
| 2026-05-05 08:16 | 38.94863 | -115.41423 | 34805 ft | 494 kts | 82° |
| 2026-05-05 08:17 | 38.96030 | -115.32729 | 34809 ft | 494 kts | 82° |
| 2026-05-05 08:17 | 38.97193 | -115.24009 | 34806 ft | 495 kts | 82° |
| 2026-05-05 08:18 | 38.98351 | -115.15278 | 34807 ft | 496 kts | 82° |
| 2026-05-05 08:18 | 38.99505 | -115.06521 | 34805 ft | 497 kts | 82° |
| 2026-05-05 08:19 | 39.00654 | -114.97753 | 34831 ft | 498 kts | 82° |
| 2026-05-05 08:19 | 39.01798 | -114.88970 | 34845 ft | 499 kts | 83° |
| 2026-05-05 08:20 | 39.02939 | -114.80153 | 34845 ft | 500 kts | 83° |
| 2026-05-05 08:20 | 39.04074 | -114.71333 | 34850 ft | 500 kts | 83° |
| 2026-05-05 08:21 | 39.05203 | -114.62501 | 34839 ft | 501 kts | 83° |
| 2026-05-05 08:21 | 39.06328 | -114.53651 | 34812 ft | 501 kts | 83° |
| 2026-05-05 08:22 | 39.07439 | -114.44849 | 34798 ft | 502 kts | 83° |
| 2026-05-05 08:22 | 39.08552 | -114.35980 | 34798 ft | 502 kts | 83° |
| 2026-05-05 08:23 | 39.09659 | -114.27100 | 34795 ft | 502 kts | 83° |
| 2026-05-05 08:23 | 39.10760 | -114.18210 | 34795 ft | 503 kts | 83° |
| 2026-05-05 08:24 | 39.11856 | -114.09307 | 34794 ft | 504 kts | 83° |
| 2026-05-05 08:24 | 39.12954 | -114.00331 | 34791 ft | 504 kts | 83° |
| 2026-05-05 08:25 | 39.14032 | -113.91460 | 34791 ft | 505 kts | 84° |
| 2026-05-05 08:25 | 39.15112 | -113.82507 | 34785 ft | 506 kts | 84° |
| 2026-05-05 08:26 | 39.16186 | -113.73542 | 34789 ft | 507 kts | 84° |
| 2026-05-05 08:26 | 39.17257 | -113.64548 | 34821 ft | 509 kts | 84° |
| 2026-05-05 08:27 | 39.17791 | -113.60035 | 34987 ft | 510 kts | 84° |
| 2026-05-05 08:27 | 39.18325 | -113.55512 | 35183 ft | 510 kts | 84° |
| 2026-05-05 08:27 | 39.18857 | -113.50994 | 35384 ft | 510 kts | 84° |
| 2026-05-05 08:27 | 39.19388 | -113.46468 | 35540 ft | 511 kts | 84° |
| 2026-05-05 08:28 | 39.19918 | -113.41934 | 35690 ft | 512 kts | 84° |
| 2026-05-05 08:28 | 39.20447 | -113.37392 | 35860 ft | 513 kts | 84° |
| 2026-05-05 08:28 | 39.20975 | -113.32841 | 36017 ft | 514 kts | 84° |
| 2026-05-05 08:28 | 39.21501 | -113.28283 | 36156 ft | 515 kts | 84° |
| 2026-05-05 08:29 | 39.22028 | -113.23717 | 36314 ft | 515 kts | 84° |
| 2026-05-05 08:29 | 39.22553 | -113.19139 | 36458 ft | 516 kts | 84° |
| 2026-05-05 08:29 | 39.23078 | -113.14555 | 36602 ft | 517 kts | 85° |
| 2026-05-05 08:30 | 39.24123 | -113.05362 | 36733 ft | 520 kts | 85° |
| 2026-05-05 08:30 | 39.25169 | -112.96104 | 36769 ft | 522 kts | 85° |
| 2026-05-05 08:31 | 39.26034 | -112.88405 | 36792 ft | 522 kts | 85° |
| 2026-05-05 08:31 | 39.27067 | -112.79137 | 36837 ft | 522 kts | 85° |
| 2026-05-05 08:32 | 39.28095 | -112.69849 | 36871 ft | 523 kts | 85° |
| 2026-05-05 08:32 | 39.29116 | -112.60560 | 36901 ft | 523 kts | 85° |
| 2026-05-05 08:33 | 39.30393 | -112.51300 | 36933 ft | 526 kts | 78° |
| 2026-05-05 08:33 | 39.32830 | -112.42367 | 36915 ft | 529 kts | 68° |
| 2026-05-05 08:34 | 39.35822 | -112.33657 | 36891 ft | 531 kts | 68° |
| 2026-05-05 08:34 | 39.38822 | -112.24942 | 36876 ft | 531 kts | 68° |
| 2026-05-05 08:35 | 39.41782 | -112.16183 | 36842 ft | 531 kts | 68° |
| 2026-05-05 08:35 | 39.44711 | -112.07407 | 36818 ft | 532 kts | 68° |
| 2026-05-05 08:36 | 39.47634 | -111.98605 | 36808 ft | 532 kts | 68° |
| 2026-05-05 08:36 | 39.50554 | -111.89795 | 36816 ft | 533 kts | 68° |
| 2026-05-05 08:37 | 39.53476 | -111.80959 | 36820 ft | 533 kts | 68° |
| 2026-05-05 08:37 | 39.56391 | -111.72120 | 36822 ft | 534 kts | 68° |
| 2026-05-05 08:38 | 39.59301 | -111.63266 | 36827 ft | 534 kts | 68° |
| 2026-05-05 08:38 | 39.62210 | -111.54387 | 36845 ft | 535 kts | 68° |
| 2026-05-05 08:39 | 39.65113 | -111.45499 | 36840 ft | 535 kts | 68° |
| 2026-05-05 08:39 | 39.68016 | -111.36580 | 36854 ft | 536 kts | 68° |
| 2026-05-05 08:40 | 39.70894 | -111.27713 | 36850 ft | 537 kts | 68° |
| 2026-05-05 08:40 | 39.73790 | -111.18762 | 36854 ft | 537 kts | 68° |
| 2026-05-05 08:41 | 39.76675 | -111.09813 | 36870 ft | 537 kts | 68° |
| 2026-05-05 08:41 | 39.79561 | -111.00832 | 36887 ft | 538 kts | 68° |
| 2026-05-05 08:42 | 39.82443 | -110.91838 | 36877 ft | 539 kts | 68° |
| 2026-05-05 08:42 | 39.85320 | -110.82831 | 36876 ft | 539 kts | 68° |
| 2026-05-05 08:43 | 39.88191 | -110.73809 | 36861 ft | 540 kts | 68° |
| 2026-05-05 08:43 | 39.91056 | -110.64778 | 36843 ft | 539 kts | 68° |
| 2026-05-05 08:44 | 39.93911 | -110.55747 | 36822 ft | 539 kts | 68° |
| 2026-05-05 08:44 | 39.96762 | -110.46705 | 36817 ft | 539 kts | 68° |
| 2026-05-05 08:45 | 39.99604 | -110.37657 | 36782 ft | 539 kts | 68° |
| 2026-05-05 08:45 | 40.02437 | -110.28608 | 36794 ft | 539 kts | 68° |
| 2026-05-05 08:46 | 40.05267 | -110.19538 | 36773 ft | 539 kts | 68° |
| 2026-05-05 08:46 | 40.08090 | -110.10462 | 36769 ft | 539 kts | 68° |
| 2026-05-05 08:47 | 40.10906 | -110.01378 | 36759 ft | 539 kts | 68° |
| 2026-05-05 08:47 | 40.13714 | -109.92290 | 36761 ft | 540 kts | 68° |
| 2026-05-05 08:48 | 40.16498 | -109.83246 | 36751 ft | 540 kts | 68° |
| 2026-05-05 08:48 | 40.19293 | -109.74138 | 36787 ft | 540 kts | 68° |
| 2026-05-05 08:49 | 40.22083 | -109.65016 | 36823 ft | 540 kts | 68° |
| 2026-05-05 08:49 | 40.24867 | -109.55883 | 36847 ft | 540 kts | 68° |
| 2026-05-05 08:50 | 40.27644 | -109.46740 | 36862 ft | 540 kts | 68° |
| 2026-05-05 08:50 | 40.30413 | -109.37595 | 36863 ft | 540 kts | 68° |
| 2026-05-05 08:51 | 40.33173 | -109.28445 | 36844 ft | 540 kts | 68° |
| 2026-05-05 08:51 | 40.35927 | -109.19285 | 36827 ft | 540 kts | 68° |
| 2026-05-05 08:52 | 40.38672 | -109.10124 | 36799 ft | 540 kts | 68° |
| 2026-05-05 08:52 | 40.41408 | -109.00959 | 36783 ft | 539 kts | 68° |
| 2026-05-05 08:53 | 40.44136 | -108.91792 | 36790 ft | 538 kts | 68° |
| 2026-05-05 08:53 | 40.46850 | -108.82638 | 36792 ft | 538 kts | 68° |
| 2026-05-05 08:54 | 40.49557 | -108.73480 | 36799 ft | 537 kts | 68° |
| 2026-05-05 08:54 | 40.52256 | -108.64315 | 36794 ft | 538 kts | 68° |
| 2026-05-05 08:55 | 40.54949 | -108.55139 | 36789 ft | 538 kts | 68° |
| 2026-05-05 08:55 | 40.57636 | -108.45950 | 36796 ft | 538 kts | 68° |
| 2026-05-05 08:56 | 40.60312 | -108.36767 | 36801 ft | 538 kts | 68° |
| 2026-05-05 08:56 | 40.62986 | -108.27555 | 36808 ft | 538 kts | 68° |
| 2026-05-05 08:57 | 40.65651 | -108.18344 | 36801 ft | 539 kts | 68° |
| 2026-05-05 08:57 | 40.68312 | -108.09115 | 36798 ft | 539 kts | 68° |
| 2026-05-05 08:58 | 40.70969 | -107.99866 | 36801 ft | 540 kts | 68° |
| 2026-05-05 08:58 | 40.73622 | -107.90598 | 36792 ft | 540 kts | 68° |
| 2026-05-05 08:59 | 40.76254 | -107.81373 | 36798 ft | 541 kts | 68° |
| 2026-05-05 08:59 | 40.78894 | -107.72085 | 36827 ft | 541 kts | 68° |
| 2026-05-05 09:00 | 40.81528 | -107.62781 | 36860 ft | 541 kts | 68° |
| 2026-05-05 09:00 | 40.84156 | -107.53467 | 36899 ft | 542 kts | 68° |
| 2026-05-05 09:01 | 40.86779 | -107.44139 | 36916 ft | 542 kts | 68° |
| 2026-05-05 09:01 | 40.89398 | -107.34786 | 36905 ft | 542 kts | 68° |
| 2026-05-05 09:02 | 40.92011 | -107.25421 | 36885 ft | 543 kts | 68° |
| 2026-05-05 09:02 | 40.94615 | -107.16057 | 36857 ft | 542 kts | 68° |
| 2026-05-05 09:03 | 40.97212 | -107.06682 | 36829 ft | 542 kts | 68° |
| 2026-05-05 09:03 | 40.99800 | -106.97308 | 36814 ft | 542 kts | 68° |
| 2026-05-05 09:04 | 41.02379 | -106.87926 | 36801 ft | 542 kts | 68° |
| 2026-05-05 09:04 | 41.04949 | -106.78545 | 36815 ft | 541 kts | 68° |
| 2026-05-05 09:05 | 41.07509 | -106.69165 | 36816 ft | 541 kts | 68° |
| 2026-05-05 09:05 | 41.10064 | -106.59768 | 36824 ft | 541 kts | 68° |
| 2026-05-05 09:06 | 41.12604 | -106.50388 | 36837 ft | 541 kts | 68° |
| 2026-05-05 09:06 | 41.15146 | -106.40970 | 36841 ft | 542 kts | 68° |
| 2026-05-05 09:07 | 41.17685 | -106.31526 | 36842 ft | 544 kts | 68° |
| 2026-05-05 09:07 | 41.20223 | -106.22046 | 36844 ft | 545 kts | 68° |
| 2026-05-05 09:08 | 41.22755 | -106.12555 | 36847 ft | 545 kts | 69° |
| 2026-05-05 09:08 | 41.25282 | -106.03047 | 36906 ft | 546 kts | 69° |
| 2026-05-05 09:09 | 41.27804 | -105.93520 | 36931 ft | 547 kts | 68° |
| 2026-05-05 09:09 | 41.30325 | -105.83959 | 36958 ft | 548 kts | 69° |
| 2026-05-05 09:10 | 41.32838 | -105.74388 | 36974 ft | 548 kts | 69° |
| 2026-05-05 09:10 | 41.35348 | -105.64795 | 36973 ft | 549 kts | 69° |
| 2026-05-05 09:11 | 41.37832 | -105.55262 | 36976 ft | 549 kts | 69° |
| 2026-05-05 09:11 | 41.40331 | -105.45635 | 36978 ft | 550 kts | 69° |
| 2026-05-05 09:12 | 41.42821 | -105.36002 | 36951 ft | 550 kts | 69° |
| 2026-05-05 09:12 | 41.45305 | -105.26356 | 36996 ft | 550 kts | 69° |
| 2026-05-05 09:13 | 41.47783 | -105.16695 | 37001 ft | 551 kts | 69° |
| 2026-05-05 09:13 | 41.50251 | -105.07033 | 37017 ft | 551 kts | 69° |
| 2026-05-05 09:14 | 41.52716 | -104.97340 | 37028 ft | 551 kts | 69° |
| 2026-05-05 09:14 | 41.55172 | -104.87647 | 37038 ft | 552 kts | 69° |
| 2026-05-05 09:15 | 41.57627 | -104.77920 | 37037 ft | 552 kts | 69° |
| 2026-05-05 09:15 | 41.59658 | -104.69841 | 37032 ft | 553 kts | 69° |
| 2026-05-05 09:16 | 41.62098 | -104.60095 | 37025 ft | 553 kts | 69° |
| 2026-05-05 09:16 | 41.64534 | -104.50330 | 37017 ft | 554 kts | 69° |
| 2026-05-05 09:17 | 41.66962 | -104.40554 | 37021 ft | 554 kts | 69° |
| 2026-05-05 09:17 | 41.69383 | -104.30763 | 37027 ft | 554 kts | 69° |
| 2026-05-05 09:18 | 41.71793 | -104.20979 | 37014 ft | 554 kts | 69° |
| 2026-05-05 09:18 | 41.74200 | -104.11167 | 37016 ft | 555 kts | 69° |
| 2026-05-05 09:19 | 41.76597 | -104.01350 | 37008 ft | 555 kts | 69° |
| 2026-05-05 09:19 | 41.78988 | -103.91519 | 37007 ft | 555 kts | 69° |
| 2026-05-05 09:20 | 41.81373 | -103.81667 | 37009 ft | 555 kts | 69° |
| 2026-05-05 09:20 | 41.83751 | -103.71807 | 37020 ft | 555 kts | 69° |
| 2026-05-05 09:21 | 41.86116 | -103.61951 | 37018 ft | 555 kts | 69° |
| 2026-05-05 09:21 | 41.88478 | -103.52079 | 37020 ft | 555 kts | 69° |
| 2026-05-05 09:22 | 41.91052 | -103.42336 | 37011 ft | 553 kts | 65° |
| 2026-05-05 09:22 | 41.93913 | -103.32811 | 37006 ft | 553 kts | 64° |
| 2026-05-05 09:23 | 41.96819 | -103.23229 | 36988 ft | 554 kts | 64° |
| 2026-05-05 09:23 | 41.99691 | -103.13601 | 36975 ft | 555 kts | 65° |
| 2026-05-05 09:24 | 42.02535 | -103.03948 | 36975 ft | 556 kts | 65° |
| 2026-05-05 09:24 | 42.05368 | -102.94276 | 36980 ft | 556 kts | 65° |
| 2026-05-05 09:25 | 42.08202 | -102.84575 | 36985 ft | 556 kts | 65° |
| 2026-05-05 09:25 | 42.11030 | -102.74864 | 36972 ft | 557 kts | 65° |
| 2026-05-05 09:26 | 42.13849 | -102.65150 | 36975 ft | 558 kts | 65° |
| 2026-05-05 09:26 | 42.16667 | -102.55405 | 36968 ft | 558 kts | 65° |
| 2026-05-05 09:27 | 42.19478 | -102.45642 | 36964 ft | 559 kts | 65° |
| 2026-05-05 09:27 | 42.22287 | -102.35853 | 36960 ft | 560 kts | 65° |
| 2026-05-05 09:28 | 42.25088 | -102.26050 | 36956 ft | 560 kts | 65° |
| 2026-05-05 09:28 | 42.27883 | -102.16230 | 36952 ft | 560 kts | 65° |
| 2026-05-05 09:29 | 42.30667 | -102.06411 | 36954 ft | 560 kts | 65° |
| 2026-05-05 09:29 | 42.33444 | -101.96579 | 36959 ft | 560 kts | 65° |
| 2026-05-05 09:30 | 42.36215 | -101.86732 | 36955 ft | 560 kts | 65° |
| 2026-05-05 09:30 | 42.38976 | -101.76880 | 36961 ft | 560 kts | 65° |
| 2026-05-05 09:31 | 42.41729 | -101.67020 | 36961 ft | 561 kts | 66° |
| 2026-05-05 09:31 | 42.44462 | -101.57190 | 36957 ft | 561 kts | 65° |
| 2026-05-05 09:32 | 42.47202 | -101.47297 | 36953 ft | 561 kts | 66° |
| 2026-05-05 09:32 | 42.49937 | -101.37381 | 36972 ft | 561 kts | 66° |
| 2026-05-05 09:33 | 42.52663 | -101.27455 | 36965 ft | 561 kts | 66° |
| 2026-05-05 09:33 | 42.55378 | -101.17533 | 36963 ft | 562 kts | 66° |
| 2026-05-05 09:34 | 42.58088 | -101.07590 | 36965 ft | 562 kts | 66° |
| 2026-05-05 09:34 | 42.60788 | -100.97642 | 36966 ft | 562 kts | 66° |
| 2026-05-05 09:35 | 42.63482 | -100.87676 | 36966 ft | 562 kts | 66° |
| 2026-05-05 09:35 | 42.67506 | -100.72716 | 36962 ft | 562 kts | 66° |
| 2026-05-05 09:36 | 42.70174 | -100.62747 | 36967 ft | 562 kts | 66° |
| 2026-05-05 09:36 | 42.72838 | -100.52751 | 36965 ft | 561 kts | 66° |
| 2026-05-05 09:37 | 42.75486 | -100.42770 | 36968 ft | 561 kts | 66° |
| 2026-05-05 09:37 | 42.78126 | -100.32781 | 36968 ft | 561 kts | 66° |
| 2026-05-05 09:38 | 42.80758 | -100.22783 | 36970 ft | 560 kts | 66° |
| 2026-05-05 09:38 | 42.83379 | -100.12784 | 36969 ft | 560 kts | 66° |
| 2026-05-05 09:39 | 42.85990 | -100.02781 | 36971 ft | 560 kts | 66° |
| 2026-05-05 09:39 | 42.88574 | -99.92839 | 36962 ft | 560 kts | 66° |
| 2026-05-05 09:40 | 42.91165 | -99.82829 | 36965 ft | 560 kts | 66° |
| 2026-05-05 09:40 | 42.93746 | -99.72816 | 36967 ft | 560 kts | 66° |
| 2026-05-05 09:41 | 42.96336 | -99.62727 | 36974 ft | 560 kts | 66° |
| 2026-05-05 09:41 | 42.98900 | -99.52692 | 36965 ft | 560 kts | 66° |
| 2026-05-05 09:42 | 43.01441 | -99.42707 | 36963 ft | 560 kts | 66° |
| 2026-05-05 09:42 | 43.03989 | -99.32652 | 36962 ft | 560 kts | 66° |
| 2026-05-05 09:43 | 43.06529 | -99.22586 | 36959 ft | 560 kts | 67° |
| 2026-05-05 09:43 | 43.09062 | -99.12502 | 36960 ft | 560 kts | 67° |
| 2026-05-05 09:44 | 43.11582 | -99.02429 | 36961 ft | 559 kts | 67° |
| 2026-05-05 09:44 | 43.14092 | -98.92354 | 36965 ft | 560 kts | 67° |
| 2026-05-05 09:45 | 43.16598 | -98.82249 | 36952 ft | 560 kts | 67° |
| 2026-05-05 09:45 | 43.19091 | -98.72151 | 36959 ft | 559 kts | 67° |
| 2026-05-05 09:46 | 43.21572 | -98.62056 | 36961 ft | 559 kts | 67° |
| 2026-05-05 09:46 | 43.24048 | -98.51939 | 36961 ft | 559 kts | 67° |
| 2026-05-05 09:47 | 43.26510 | -98.41838 | 36962 ft | 559 kts | 67° |
| 2026-05-05 09:47 | 43.28963 | -98.31727 | 36957 ft | 558 kts | 67° |
| 2026-05-05 09:48 | 43.31406 | -98.21607 | 36959 ft | 558 kts | 67° |
| 2026-05-05 09:48 | 43.33837 | -98.11500 | 36963 ft | 557 kts | 68° |
| 2026-05-05 09:49 | 43.36256 | -98.01394 | 36963 ft | 557 kts | 68° |
| 2026-05-05 09:49 | 43.38669 | -97.91269 | 36969 ft | 556 kts | 68° |
| 2026-05-05 09:50 | 43.41066 | -97.81164 | 36974 ft | 556 kts | 68° |
| 2026-05-05 09:50 | 43.43440 | -97.71109 | 36979 ft | 556 kts | 68° |
| 2026-05-05 09:51 | 43.45821 | -97.60984 | 36969 ft | 556 kts | 68° |
| 2026-05-05 09:51 | 43.48194 | -97.50841 | 36973 ft | 556 kts | 68° |
| 2026-05-05 09:52 | 43.50557 | -97.40700 | 36962 ft | 556 kts | 68° |
| 2026-05-05 09:52 | 43.52915 | -97.30531 | 36954 ft | 557 kts | 68° |
| 2026-05-05 09:53 | 43.55260 | -97.20373 | 36946 ft | 557 kts | 68° |
| 2026-05-05 09:53 | 43.57600 | -97.10188 | 36939 ft | 557 kts | 68° |
| 2026-05-05 09:54 | 43.59935 | -96.99976 | 36928 ft | 558 kts | 68° |
| 2026-05-05 09:54 | 43.62260 | -96.89761 | 36918 ft | 558 kts | 68° |
| 2026-05-05 09:55 | 43.64571 | -96.79529 | 36917 ft | 559 kts | 70° |
| 2026-05-05 09:55 | 43.66291 | -96.69015 | 36920 ft | 563 kts | 76° |
| 2026-05-05 09:56 | 43.67691 | -96.58368 | 36913 ft | 563 kts | 77° |
| 2026-05-05 09:56 | 43.69087 | -96.47709 | 36929 ft | 563 kts | 76° |
| 2026-05-05 09:57 | 43.70516 | -96.37077 | 36924 ft | 563 kts | 76° |
| 2026-05-05 09:57 | 43.71957 | -96.26434 | 36919 ft | 563 kts | 76° |
| 2026-05-05 09:58 | 43.73388 | -96.15784 | 36917 ft | 563 kts | 76° |
| 2026-05-05 09:58 | 43.74802 | -96.05146 | 36924 ft | 563 kts | 77° |
| 2026-05-05 09:59 | 43.75970 | -95.96285 | 36927 ft | 563 kts | 77° |
| 2026-05-05 09:59 | 43.77367 | -95.85623 | 36920 ft | 563 kts | 77° |
| 2026-05-05 10:00 | 43.78977 | -95.73228 | 36910 ft | 563 kts | 77° |
| 2026-05-05 10:00 | 43.80130 | -95.64287 | 36911 ft | 563 kts | 77° |
| 2026-05-05 10:01 | 43.81497 | -95.53612 | 36917 ft | 564 kts | 77° |
| 2026-05-05 10:01 | 43.82857 | -95.42911 | 36913 ft | 564 kts | 77° |
| 2026-05-05 10:02 | 43.84205 | -95.32218 | 36901 ft | 564 kts | 77° |
| 2026-05-05 10:02 | 43.85543 | -95.21515 | 36890 ft | 564 kts | 77° |
| 2026-05-05 10:03 | 43.86872 | -95.10803 | 36891 ft | 564 kts | 77° |
| 2026-05-05 10:03 | 43.88193 | -95.00075 | 36890 ft | 564 kts | 77° |
| 2026-05-05 10:04 | 43.89501 | -94.89358 | 36890 ft | 564 kts | 77° |
| 2026-05-05 10:04 | 43.90799 | -94.78639 | 36889 ft | 564 kts | 77° |
| 2026-05-05 10:05 | 43.92078 | -94.67995 | 36884 ft | 563 kts | 77° |
| 2026-05-05 10:05 | 43.93356 | -94.57265 | 36880 ft | 563 kts | 78° |
| 2026-05-05 10:06 | 43.94624 | -94.46538 | 36880 ft | 563 kts | 78° |
| 2026-05-05 10:06 | 43.95881 | -94.35805 | 36887 ft | 563 kts | 78° |
| 2026-05-05 10:07 | 43.97128 | -94.25073 | 36882 ft | 563 kts | 78° |
| 2026-05-05 10:07 | 43.98365 | -94.14343 | 36907 ft | 563 kts | 78° |
| 2026-05-05 10:08 | 43.99619 | -94.03608 | 36894 ft | 562 kts | 76° |
| 2026-05-05 10:08 | 44.01684 | -93.93217 | 36883 ft | 555 kts | 64° |
| 2026-05-05 10:09 | 44.04453 | -93.83201 | 36893 ft | 555 kts | 64° |
| 2026-05-05 10:09 | 44.07234 | -93.73184 | 36905 ft | 556 kts | 64° |
| 2026-05-05 10:10 | 44.09965 | -93.63114 | 36909 ft | 557 kts | 65° |
| 2026-05-05 10:10 | 44.12663 | -93.53008 | 36905 ft | 557 kts | 65° |
| 2026-05-05 10:11 | 44.15333 | -93.42945 | 36901 ft | 557 kts | 65° |
| 2026-05-05 10:11 | 44.18014 | -93.32821 | 36866 ft | 557 kts | 65° |
| 2026-05-05 10:12 | 44.20691 | -93.22678 | 36863 ft | 557 kts | 65° |
| 2026-05-05 10:12 | 44.23354 | -93.12546 | 36866 ft | 557 kts | 65° |
| 2026-05-05 10:13 | 44.26007 | -93.02408 | 36868 ft | 556 kts | 66° |
| 2026-05-05 10:13 | 44.28652 | -92.92259 | 36868 ft | 556 kts | 66° |
| 2026-05-05 10:14 | 44.31286 | -92.82105 | 36848 ft | 556 kts | 66° |
| 2026-05-05 10:14 | 44.33911 | -92.71945 | 36852 ft | 555 kts | 66° |
| 2026-05-05 10:15 | 44.36523 | -92.61789 | 36847 ft | 555 kts | 66° |
| 2026-05-05 10:15 | 44.39128 | -92.51619 | 36844 ft | 555 kts | 66° |
| 2026-05-05 10:16 | 44.41722 | -92.41446 | 36845 ft | 555 kts | 66° |
| 2026-05-05 10:16 | 44.44307 | -92.31262 | 36843 ft | 556 kts | 66° |
| 2026-05-05 10:17 | 44.46885 | -92.21063 | 36840 ft | 556 kts | 67° |
| 2026-05-05 10:17 | 44.49437 | -92.10922 | 36837 ft | 556 kts | 67° |
| 2026-05-05 10:18 | 44.51999 | -92.00697 | 36825 ft | 556 kts | 67° |
| 2026-05-05 10:18 | 44.54551 | -91.90466 | 36824 ft | 556 kts | 67° |
| 2026-05-05 10:19 | 44.57092 | -91.80231 | 36822 ft | 556 kts | 67° |
| 2026-05-05 10:19 | 44.59621 | -91.69999 | 36815 ft | 555 kts | 67° |
| 2026-05-05 10:20 | 44.62142 | -91.59757 | 36813 ft | 555 kts | 68° |
| 2026-05-05 10:20 | 44.64653 | -91.49506 | 36814 ft | 555 kts | 68° |
| 2026-05-05 10:21 | 44.67154 | -91.39255 | 36816 ft | 555 kts | 68° |
| 2026-05-05 10:21 | 44.69645 | -91.28994 | 36810 ft | 555 kts | 68° |
| 2026-05-05 10:22 | 44.72126 | -91.18725 | 36806 ft | 554 kts | 68° |
| 2026-05-05 10:22 | 44.74597 | -91.08457 | 36807 ft | 554 kts | 68° |
| 2026-05-05 10:23 | 44.77058 | -90.98181 | 36802 ft | 554 kts | 68° |
| 2026-05-05 10:23 | 44.79508 | -90.87900 | 36802 ft | 554 kts | 68° |
| 2026-05-05 10:24 | 44.81950 | -90.77609 | 36793 ft | 554 kts | 69° |
| 2026-05-05 10:24 | 44.84366 | -90.67380 | 36796 ft | 553 kts | 69° |
| 2026-05-05 10:25 | 44.86787 | -90.57079 | 36784 ft | 553 kts | 69° |
| 2026-05-05 10:25 | 44.89199 | -90.46773 | 36779 ft | 553 kts | 69° |
| 2026-05-05 10:26 | 44.91602 | -90.36454 | 36781 ft | 553 kts | 69° |
| 2026-05-05 10:26 | 44.93993 | -90.26136 | 36772 ft | 553 kts | 69° |
| 2026-05-05 10:27 | 44.96379 | -90.15793 | 36780 ft | 554 kts | 69° |
| 2026-05-05 10:27 | 44.98756 | -90.05447 | 36776 ft | 554 kts | 69° |
| 2026-05-05 10:28 | 45.01261 | -89.95183 | 36759 ft | 552 kts | 66° |
| 2026-05-05 10:28 | 45.04081 | -89.85074 | 36767 ft | 552 kts | 65° |
| 2026-05-05 10:29 | 45.06943 | -89.74992 | 36763 ft | 553 kts | 65° |
| 2026-05-05 10:29 | 45.09754 | -89.64938 | 36761 ft | 554 kts | 65° |
| 2026-05-05 10:30 | 45.12556 | -89.54769 | 36757 ft | 554 kts | 66° |
| 2026-05-05 10:30 | 45.15340 | -89.44595 | 36754 ft | 554 kts | 66° |
| 2026-05-05 10:31 | 45.18119 | -89.34407 | 36753 ft | 554 kts | 66° |
| 2026-05-05 10:31 | 45.20890 | -89.24212 | 36754 ft | 554 kts | 66° |
| 2026-05-05 10:32 | 45.23649 | -89.14022 | 36742 ft | 553 kts | 66° |
| 2026-05-05 10:32 | 45.26396 | -89.03833 | 36758 ft | 553 kts | 66° |
| 2026-05-05 10:33 | 45.29136 | -88.93627 | 36747 ft | 552 kts | 66° |
| 2026-05-05 10:33 | 45.31862 | -88.83429 | 36741 ft | 552 kts | 66° |
| 2026-05-05 10:34 | 45.34579 | -88.73222 | 36739 ft | 552 kts | 66° |
| 2026-05-05 10:34 | 45.37285 | -88.63009 | 36726 ft | 552 kts | 67° |
| 2026-05-05 10:35 | 45.39984 | -88.52781 | 36722 ft | 552 kts | 67° |
| 2026-05-05 10:35 | 45.42670 | -88.42556 | 36718 ft | 551 kts | 67° |
| 2026-05-05 10:36 | 45.45344 | -88.32330 | 36717 ft | 551 kts | 67° |
| 2026-05-05 10:36 | 45.48011 | -88.22093 | 36712 ft | 551 kts | 67° |
| 2026-05-05 10:37 | 45.50666 | -88.11851 | 36710 ft | 551 kts | 67° |
| 2026-05-05 10:37 | 45.53312 | -88.01603 | 36707 ft | 551 kts | 68° |
| 2026-05-05 10:38 | 45.55949 | -87.91342 | 36710 ft | 551 kts | 68° |
| 2026-05-05 10:38 | 45.58576 | -87.81075 | 36712 ft | 551 kts | 68° |
| 2026-05-05 10:39 | 45.61194 | -87.70797 | 36720 ft | 551 kts | 68° |
| 2026-05-05 10:39 | 45.63805 | -87.60504 | 36716 ft | 551 kts | 68° |
| 2026-05-05 10:40 | 45.66408 | -87.50194 | 36716 ft | 551 kts | 68° |
| 2026-05-05 10:40 | 45.68998 | -87.39890 | 36720 ft | 551 kts | 68° |
| 2026-05-05 10:41 | 45.71583 | -87.29556 | 36715 ft | 551 kts | 69° |
| 2026-05-05 10:41 | 45.74157 | -87.19222 | 36715 ft | 551 kts | 69° |
| 2026-05-05 10:42 | 45.78004 | -87.03691 | 36715 ft | 551 kts | 69° |
| 2026-05-05 10:43 | 45.80551 | -86.93348 | 36717 ft | 551 kts | 69° |
| 2026-05-05 10:43 | 45.82665 | -86.84728 | 36715 ft | 551 kts | 69° |
| 2026-05-05 10:44 | 45.85191 | -86.74382 | 36718 ft | 550 kts | 69° |
| 2026-05-05 10:44 | 45.88120 | -86.62330 | 36719 ft | 550 kts | 69° |
| 2026-05-05 10:45 | 45.90220 | -86.53644 | 36715 ft | 549 kts | 69° |
| 2026-05-05 10:45 | 45.92717 | -86.43274 | 36709 ft | 549 kts | 70° |
| 2026-05-05 10:46 | 45.95188 | -86.32969 | 36704 ft | 549 kts | 70° |
| 2026-05-05 10:46 | 45.97666 | -86.22580 | 36702 ft | 549 kts | 70° |
| 2026-05-05 10:47 | 46.00133 | -86.12193 | 36705 ft | 549 kts | 70° |
| 2026-05-05 10:47 | 46.02587 | -86.01810 | 36703 ft | 548 kts | 70° |
| 2026-05-05 10:48 | 46.05034 | -85.91406 | 36702 ft | 548 kts | 70° |
| 2026-05-05 10:48 | 46.07466 | -85.81018 | 36702 ft | 548 kts | 70° |
| 2026-05-05 10:49 | 46.09890 | -85.70615 | 36695 ft | 547 kts | 71° |
| 2026-05-05 10:49 | 46.12305 | -85.60204 | 36692 ft | 547 kts | 71° |
| 2026-05-05 10:50 | 46.14706 | -85.49799 | 36691 ft | 547 kts | 71° |
| 2026-05-05 10:50 | 46.17099 | -85.39380 | 36687 ft | 547 kts | 71° |
| 2026-05-05 10:51 | 46.19480 | -85.28962 | 36689 ft | 547 kts | 71° |
| 2026-05-05 10:51 | 46.21853 | -85.18530 | 36693 ft | 547 kts | 71° |
| 2026-05-05 10:52 | 46.24214 | -85.08098 | 36694 ft | 546 kts | 71° |
| 2026-05-05 10:52 | 46.26566 | -84.97657 | 36699 ft | 546 kts | 72° |
| 2026-05-05 10:53 | 46.28906 | -84.87217 | 36684 ft | 546 kts | 72° |
| 2026-05-05 10:53 | 46.31235 | -84.76776 | 36671 ft | 545 kts | 72° |
| 2026-05-05 10:54 | 46.33553 | -84.66335 | 36661 ft | 545 kts | 72° |
| 2026-05-05 10:54 | 46.35867 | -84.55853 | 36659 ft | 546 kts | 72° |
| 2026-05-05 10:55 | 46.38153 | -84.45452 | 36651 ft | 546 kts | 72° |
| 2026-05-05 10:55 | 46.40456 | -84.34966 | 36640 ft | 546 kts | 71° |
| 2026-05-05 10:56 | 46.43444 | -84.24862 | 36635 ft | 545 kts | 62° |
| 2026-05-05 10:56 | 46.47004 | -84.15156 | 36638 ft | 545 kts | 60° |
| 2026-05-05 10:57 | 46.50579 | -84.05450 | 36645 ft | 545 kts | 61° |
| 2026-05-05 10:57 | 46.54106 | -83.95693 | 36653 ft | 546 kts | 62° |
| 2026-05-05 10:58 | 46.57604 | -83.85891 | 36647 ft | 546 kts | 62° |
| 2026-05-05 10:58 | 46.61093 | -83.76064 | 36657 ft | 547 kts | 62° |
| 2026-05-05 10:59 | 46.64581 | -83.66214 | 36656 ft | 547 kts | 62° |
| 2026-05-05 10:59 | 46.68058 | -83.56368 | 36653 ft | 548 kts | 62° |
| 2026-05-05 11:00 | 46.71537 | -83.46482 | 36651 ft | 548 kts | 62° |
| 2026-05-05 11:00 | 46.75005 | -83.36588 | 36649 ft | 548 kts | 62° |
| 2026-05-05 11:01 | 46.78469 | -83.26668 | 36662 ft | 549 kts | 62° |
| 2026-05-05 11:01 | 46.81927 | -83.16726 | 36653 ft | 549 kts | 63° |
| 2026-05-05 11:02 | 46.85380 | -83.06766 | 36654 ft | 550 kts | 63° |
| 2026-05-05 11:02 | 46.88825 | -82.96787 | 36655 ft | 550 kts | 63° |
| 2026-05-05 11:03 | 46.92259 | -82.86802 | 36644 ft | 550 kts | 63° |
| 2026-05-05 11:03 | 46.95664 | -82.76866 | 36643 ft | 550 kts | 63° |
| 2026-05-05 11:04 | 46.99107 | -82.66778 | 36640 ft | 550 kts | 63° |
| 2026-05-05 11:04 | 47.02496 | -82.56810 | 36628 ft | 550 kts | 63° |
| 2026-05-05 11:05 | 47.05921 | -82.46698 | 36623 ft | 550 kts | 63° |
| 2026-05-05 11:05 | 47.09316 | -82.36635 | 36617 ft | 550 kts | 63° |
| 2026-05-05 11:06 | 47.12681 | -82.26626 | 36610 ft | 550 kts | 63° |
| 2026-05-05 11:06 | 47.16058 | -82.16538 | 36602 ft | 550 kts | 64° |
| 2026-05-05 11:07 | 47.19429 | -82.06428 | 36597 ft | 550 kts | 64° |
| 2026-05-05 11:07 | 47.22788 | -81.96319 | 36586 ft | 551 kts | 64° |
| 2026-05-05 11:08 | 47.26142 | -81.86181 | 36580 ft | 551 kts | 64° |
| 2026-05-05 11:08 | 47.29483 | -81.76045 | 36575 ft | 550 kts | 64° |
| 2026-05-05 11:09 | 47.32818 | -81.65886 | 36574 ft | 550 kts | 64° |
| 2026-05-05 11:09 | 47.36140 | -81.55727 | 36561 ft | 550 kts | 64° |
| 2026-05-05 11:10 | 47.39453 | -81.45554 | 36567 ft | 550 kts | 64° |
| 2026-05-05 11:10 | 47.42758 | -81.35369 | 36568 ft | 550 kts | 64° |
| 2026-05-05 11:11 | 47.46053 | -81.25173 | 36558 ft | 550 kts | 64° |
| 2026-05-05 11:11 | 47.49341 | -81.14955 | 36555 ft | 550 kts | 64° |
| 2026-05-05 11:12 | 47.52615 | -81.04739 | 36545 ft | 550 kts | 65° |
| 2026-05-05 11:12 | 47.55886 | -80.94494 | 36545 ft | 550 kts | 65° |
| 2026-05-05 11:13 | 47.59150 | -80.84230 | 36538 ft | 551 kts | 65° |
| 2026-05-05 11:13 | 47.62401 | -80.73963 | 36532 ft | 551 kts | 65° |
| 2026-05-05 11:14 | 47.65647 | -80.63671 | 36524 ft | 551 kts | 65° |
| 2026-05-05 11:14 | 47.68882 | -80.53372 | 36518 ft | 551 kts | 65° |
| 2026-05-05 11:15 | 47.72109 | -80.43055 | 36515 ft | 550 kts | 65° |
| 2026-05-05 11:15 | 47.75324 | -80.32735 | 36511 ft | 550 kts | 65° |
| 2026-05-05 11:16 | 47.78510 | -80.22467 | 36511 ft | 550 kts | 65° |
| 2026-05-05 11:16 | 47.81707 | -80.12121 | 36512 ft | 550 kts | 65° |
| 2026-05-05 11:17 | 47.84891 | -80.01772 | 36516 ft | 550 kts | 65° |
| 2026-05-05 11:17 | 47.88070 | -79.91400 | 36515 ft | 550 kts | 66° |
| 2026-05-05 11:18 | 47.91237 | -79.81022 | 36519 ft | 550 kts | 66° |
| 2026-05-05 11:18 | 47.94393 | -79.70633 | 36517 ft | 550 kts | 66° |
| 2026-05-05 11:19 | 47.97541 | -79.60231 | 36519 ft | 549 kts | 66° |
| 2026-05-05 11:19 | 48.00672 | -79.49840 | 36508 ft | 549 kts | 66° |
| 2026-05-05 11:20 | 48.03793 | -79.39438 | 36514 ft | 548 kts | 66° |
| 2026-05-05 11:20 | 48.06901 | -79.29039 | 36508 ft | 548 kts | 66° |
| 2026-05-05 11:21 | 48.09997 | -79.18630 | 36506 ft | 547 kts | 66° |
| 2026-05-05 11:21 | 48.13081 | -79.08218 | 36496 ft | 547 kts | 66° |
| 2026-05-05 11:22 | 48.16154 | -78.97807 | 36488 ft | 547 kts | 66° |
| 2026-05-05 11:22 | 48.19626 | -78.87673 | 36491 ft | 546 kts | 59° |
| 2026-05-05 11:23 | 48.23536 | -78.77916 | 36484 ft | 546 kts | 58° |
| 2026-05-05 11:23 | 48.27468 | -78.68161 | 36489 ft | 546 kts | 59° |
| 2026-05-05 11:24 | 48.31355 | -78.58355 | 36497 ft | 546 kts | 59° |
| 2026-05-05 11:24 | 48.35206 | -78.48518 | 36496 ft | 546 kts | 59° |
| 2026-05-05 11:25 | 48.39043 | -78.38667 | 36499 ft | 546 kts | 59° |
| 2026-05-05 11:25 | 48.42875 | -78.28801 | 36497 ft | 546 kts | 59° |
| 2026-05-05 11:26 | 48.46675 | -78.18990 | 36500 ft | 545 kts | 60° |
| 2026-05-05 11:26 | 48.50488 | -78.09111 | 36490 ft | 545 kts | 60° |
| 2026-05-05 11:27 | 48.54288 | -77.99230 | 36484 ft | 544 kts | 60° |
| 2026-05-05 11:27 | 48.58082 | -77.89323 | 36482 ft | 544 kts | 60° |
| 2026-05-05 11:28 | 48.61862 | -77.79417 | 36475 ft | 544 kts | 60° |
| 2026-05-05 11:28 | 48.64998 | -77.71172 | 36476 ft | 544 kts | 60° |
| 2026-05-05 11:29 | 48.68757 | -77.61253 | 36471 ft | 544 kts | 60° |
| 2026-05-05 11:29 | 48.72512 | -77.51309 | 36469 ft | 544 kts | 60° |
| 2026-05-05 11:30 | 48.76257 | -77.41354 | 36463 ft | 544 kts | 60° |
| 2026-05-05 11:30 | 48.79988 | -77.31397 | 36461 ft | 543 kts | 60° |
| 2026-05-05 11:31 | 48.83720 | -77.21400 | 36454 ft | 543 kts | 61° |
| 2026-05-05 11:31 | 48.87432 | -77.11418 | 36459 ft | 543 kts | 61° |
| 2026-05-05 11:32 | 48.91144 | -77.01397 | 36449 ft | 543 kts | 61° |
| 2026-05-05 11:32 | 48.94843 | -76.91375 | 36454 ft | 543 kts | 61° |
| 2026-05-05 11:33 | 48.98528 | -76.81353 | 36447 ft | 543 kts | 61° |
| 2026-05-05 11:33 | 49.02208 | -76.71305 | 36443 ft | 543 kts | 61° |
| 2026-05-05 11:34 | 49.05876 | -76.61251 | 36438 ft | 543 kts | 62° |
| 2026-05-05 11:34 | 49.09532 | -76.51191 | 36442 ft | 542 kts | 62° |
| 2026-05-05 11:35 | 49.13175 | -76.41126 | 36441 ft | 542 kts | 62° |
| 2026-05-05 11:35 | 49.16813 | -76.31041 | 36437 ft | 542 kts | 62° |
| 2026-05-05 11:36 | 49.20434 | -76.20960 | 36444 ft | 541 kts | 62° |
| 2026-05-05 11:36 | 49.24051 | -76.10853 | 36438 ft | 541 kts | 62° |
| 2026-05-05 11:37 | 49.27657 | -76.00735 | 36442 ft | 541 kts | 62° |
| 2026-05-05 11:37 | 49.31250 | -75.90614 | 36451 ft | 541 kts | 62° |
| 2026-05-05 11:38 | 49.34836 | -75.80475 | 36441 ft | 541 kts | 62° |
| 2026-05-05 11:38 | 49.38409 | -75.70331 | 36443 ft | 540 kts | 62° |
| 2026-05-05 11:39 | 49.41951 | -75.60237 | 36442 ft | 540 kts | 62° |
| 2026-05-05 11:39 | 49.45506 | -75.50066 | 36445 ft | 540 kts | 63° |
| 2026-05-05 11:40 | 49.49054 | -75.39874 | 36446 ft | 540 kts | 63° |
| 2026-05-05 11:40 | 49.52592 | -75.29669 | 36446 ft | 540 kts | 63° |
| 2026-05-05 11:41 | 49.56122 | -75.19450 | 36450 ft | 540 kts | 63° |
| 2026-05-05 11:41 | 49.59638 | -75.09228 | 36449 ft | 540 kts | 63° |
| 2026-05-05 11:42 | 49.63152 | -74.98971 | 36446 ft | 540 kts | 63° |
| 2026-05-05 11:42 | 49.66646 | -74.88728 | 36445 ft | 540 kts | 63° |
| 2026-05-05 11:43 | 49.70136 | -74.78458 | 36443 ft | 539 kts | 63° |
| 2026-05-05 11:43 | 49.73611 | -74.68191 | 36439 ft | 539 kts | 63° |
| 2026-05-05 11:44 | 49.77079 | -74.57905 | 36441 ft | 539 kts | 63° |
| 2026-05-05 11:44 | 49.80595 | -74.47662 | 36439 ft | 539 kts | 59° |
| 2026-05-05 11:45 | 49.84567 | -74.37824 | 36443 ft | 539 kts | 57° |
| 2026-05-05 11:45 | 49.88632 | -74.28044 | 36447 ft | 539 kts | 57° |
| 2026-05-05 11:46 | 49.92668 | -74.18232 | 36450 ft | 540 kts | 58° |
| 2026-05-05 11:46 | 49.96669 | -74.08377 | 36463 ft | 540 kts | 58° |
| 2026-05-05 11:47 | 50.00656 | -73.98484 | 36468 ft | 540 kts | 58° |
| 2026-05-05 11:47 | 50.04638 | -73.88568 | 36467 ft | 540 kts | 58° |
| 2026-05-05 11:48 | 50.10602 | -73.73659 | 36473 ft | 541 kts | 58° |
| 2026-05-05 11:48 | 50.14572 | -73.63689 | 36633 ft | 542 kts | 58° |
| 2026-05-05 11:49 | 50.16545 | -73.58721 | 37041 ft | 537 kts | 58° |
| 2026-05-05 11:49 | 50.18499 | -73.53791 | 37596 ft | 530 kts | 59° |
| 2026-05-05 11:49 | 50.20420 | -73.48937 | 38155 ft | 522 kts | 59° |
| 2026-05-05 11:49 | 50.22292 | -73.44197 | 38480 ft | 518 kts | 59° |
| 2026-05-05 11:50 | 50.26094 | -73.34540 | 38493 ft | 525 kts | 59° |
| 2026-05-05 11:50 | 50.29914 | -73.24799 | 38481 ft | 525 kts | 59° |
| 2026-05-05 11:51 | 50.33710 | -73.15086 | 38486 ft | 522 kts | 59° |
| 2026-05-05 11:51 | 50.37482 | -73.05401 | 38487 ft | 520 kts | 59° |
| 2026-05-05 11:52 | 50.41234 | -72.95730 | 38496 ft | 518 kts | 59° |
| 2026-05-05 11:52 | 50.44972 | -72.86057 | 38501 ft | 518 kts | 59° |
| 2026-05-05 11:53 | 50.48705 | -72.76364 | 38498 ft | 519 kts | 59° |
| 2026-05-05 11:53 | 50.52435 | -72.66640 | 38499 ft | 520 kts | 59° |
| 2026-05-05 11:54 | 50.56164 | -72.56882 | 38504 ft | 521 kts | 59° |
| 2026-05-05 11:54 | 50.59892 | -72.47090 | 38505 ft | 522 kts | 59° |
| 2026-05-05 11:55 | 50.63619 | -72.37264 | 38503 ft | 522 kts | 59° |
| 2026-05-05 11:55 | 50.67333 | -72.27437 | 38509 ft | 521 kts | 59° |
| 2026-05-05 11:56 | 50.71034 | -72.17603 | 38508 ft | 520 kts | 59° |
| 2026-05-05 11:56 | 50.74714 | -72.07791 | 38511 ft | 519 kts | 59° |
| 2026-05-05 11:57 | 50.78381 | -71.97973 | 38510 ft | 518 kts | 59° |
| 2026-05-05 11:57 | 50.82028 | -71.88174 | 38515 ft | 516 kts | 59° |
| 2026-05-05 11:58 | 50.85656 | -71.78387 | 38516 ft | 515 kts | 59° |
| 2026-05-05 11:58 | 50.89268 | -71.68607 | 38525 ft | 513 kts | 60° |
| 2026-05-05 11:59 | 50.92860 | -71.58844 | 38523 ft | 512 kts | 60° |
| 2026-05-05 11:59 | 50.96439 | -71.49078 | 38531 ft | 511 kts | 60° |
| 2026-05-05 12:00 | 51.00002 | -71.39320 | 38533 ft | 510 kts | 60° |
| 2026-05-05 12:00 | 51.03531 | -71.29619 | 38534 ft | 510 kts | 60° |
| 2026-05-05 12:01 | 51.07064 | -71.19867 | 38545 ft | 509 kts | 60° |
| 2026-05-05 12:01 | 51.10588 | -71.10103 | 38545 ft | 509 kts | 60° |
| 2026-05-05 12:02 | 51.14106 | -71.00319 | 38555 ft | 509 kts | 60° |
| 2026-05-05 12:02 | 51.17612 | -70.90534 | 38550 ft | 508 kts | 60° |
| 2026-05-05 12:03 | 51.21110 | -70.80728 | 38551 ft | 508 kts | 60° |
| 2026-05-05 12:03 | 51.24589 | -70.70940 | 38558 ft | 507 kts | 60° |
| 2026-05-05 12:04 | 51.28062 | -70.61132 | 38552 ft | 507 kts | 61° |
| 2026-05-05 12:04 | 51.31526 | -70.51311 | 38555 ft | 507 kts | 61° |
| 2026-05-05 12:05 | 51.34979 | -70.41483 | 38560 ft | 506 kts | 61° |
| 2026-05-05 12:05 | 51.38422 | -70.31644 | 38568 ft | 506 kts | 61° |
| 2026-05-05 12:06 | 51.41856 | -70.21797 | 38570 ft | 506 kts | 61° |
| 2026-05-05 12:06 | 51.45277 | -70.11943 | 38571 ft | 506 kts | 61° |
| 2026-05-05 12:07 | 51.48692 | -70.02071 | 38578 ft | 506 kts | 61° |
| 2026-05-05 12:07 | 51.52076 | -69.92248 | 38579 ft | 506 kts | 61° |
| 2026-05-05 12:08 | 51.55495 | -69.82284 | 38588 ft | 506 kts | 61° |
| 2026-05-05 12:08 | 51.58864 | -69.72429 | 38584 ft | 506 kts | 62° |
| 2026-05-05 12:09 | 51.62244 | -69.62501 | 38590 ft | 506 kts | 62° |
| 2026-05-05 12:09 | 51.65617 | -69.52558 | 38594 ft | 506 kts | 62° |
| 2026-05-05 12:10 | 51.68983 | -69.42592 | 38594 ft | 506 kts | 62° |
| 2026-05-05 12:10 | 51.72341 | -69.32610 | 38592 ft | 506 kts | 62° |
| 2026-05-05 12:11 | 51.75691 | -69.22612 | 38596 ft | 506 kts | 62° |
| 2026-05-05 12:11 | 51.79030 | -69.12609 | 38598 ft | 506 kts | 62° |
| 2026-05-05 12:12 | 51.82360 | -69.02589 | 38602 ft | 506 kts | 62° |
| 2026-05-05 12:12 | 51.85121 | -68.94255 | 38602 ft | 506 kts | 62° |
| 2026-05-05 12:13 | 51.88434 | -68.84211 | 38599 ft | 506 kts | 62° |
| 2026-05-05 12:13 | 51.91739 | -68.74156 | 38600 ft | 506 kts | 62° |
| 2026-05-05 12:14 | 51.95033 | -68.64090 | 38605 ft | 505 kts | 62° |
| 2026-05-05 12:14 | 51.98318 | -68.54013 | 38599 ft | 505 kts | 62° |
| 2026-05-05 12:15 | 52.01588 | -68.43940 | 38606 ft | 504 kts | 62° |
| 2026-05-05 12:15 | 52.04847 | -68.33857 | 38606 ft | 504 kts | 62° |
| 2026-05-05 12:16 | 52.08101 | -68.23751 | 38610 ft | 504 kts | 62° |
| 2026-05-05 12:16 | 52.11343 | -68.13642 | 38607 ft | 504 kts | 62° |
| 2026-05-05 12:17 | 52.14573 | -68.03525 | 38606 ft | 504 kts | 62° |
| 2026-05-05 12:17 | 52.17795 | -67.93393 | 38609 ft | 503 kts | 62° |
| 2026-05-05 12:18 | 52.21006 | -67.83254 | 38609 ft | 503 kts | 62° |
| 2026-05-05 12:18 | 52.24209 | -67.73095 | 38608 ft | 504 kts | 63° |
| 2026-05-05 12:19 | 52.27402 | -67.62928 | 38616 ft | 503 kts | 63° |
| 2026-05-05 12:19 | 52.30587 | -67.52746 | 38612 ft | 503 kts | 63° |
| 2026-05-05 12:20 | 52.33763 | -67.42547 | 38612 ft | 503 kts | 63° |
| 2026-05-05 12:20 | 52.36928 | -67.32343 | 38612 ft | 503 kts | 63° |
| 2026-05-05 12:21 | 52.40084 | -67.22125 | 38608 ft | 503 kts | 63° |
| 2026-05-05 12:21 | 52.43233 | -67.11883 | 38606 ft | 503 kts | 63° |
| 2026-05-05 12:22 | 52.46367 | -67.01718 | 38608 ft | 502 kts | 61° |
| 2026-05-05 12:22 | 52.50125 | -66.92090 | 38607 ft | 501 kts | 54° |
| 2026-05-05 12:23 | 52.54191 | -66.82790 | 38598 ft | 501 kts | 53° |
| 2026-05-05 12:23 | 52.58253 | -66.73484 | 38588 ft | 501 kts | 54° |
| 2026-05-05 12:24 | 52.62279 | -66.64120 | 38584 ft | 501 kts | 54° |
| 2026-05-05 12:24 | 52.66285 | -66.54713 | 38575 ft | 501 kts | 54° |
| 2026-05-05 12:25 | 52.70278 | -66.45290 | 38576 ft | 502 kts | 54° |
| 2026-05-05 12:25 | 52.74266 | -66.35849 | 38576 ft | 502 kts | 54° |
| 2026-05-05 12:26 | 52.78249 | -66.26389 | 38578 ft | 502 kts | 54° |
| 2026-05-05 12:26 | 52.82236 | -66.16888 | 38567 ft | 502 kts | 54° |
| 2026-05-05 12:27 | 52.86214 | -66.07373 | 38569 ft | 503 kts | 54° |
| 2026-05-05 12:27 | 52.90183 | -65.97839 | 38561 ft | 503 kts | 55° |
| 2026-05-05 12:28 | 52.94150 | -65.88277 | 38557 ft | 503 kts | 55° |
| 2026-05-05 12:28 | 52.98102 | -65.78716 | 38555 ft | 503 kts | 55° |
| 2026-05-05 12:29 | 53.02052 | -65.69123 | 38549 ft | 504 kts | 55° |
| 2026-05-05 12:29 | 53.05998 | -65.59501 | 38543 ft | 504 kts | 55° |
| 2026-05-05 12:30 | 53.09942 | -65.49849 | 38536 ft | 504 kts | 55° |
| 2026-05-05 12:30 | 53.13877 | -65.40181 | 38533 ft | 505 kts | 55° |
| 2026-05-05 12:31 | 53.17809 | -65.30485 | 38532 ft | 505 kts | 55° |
| 2026-05-05 12:31 | 53.21734 | -65.20769 | 38526 ft | 505 kts | 55° |
| 2026-05-05 12:32 | 53.25645 | -65.11052 | 38518 ft | 504 kts | 56° |
| 2026-05-05 12:32 | 53.29545 | -65.01322 | 38518 ft | 503 kts | 56° |
| 2026-05-05 12:33 | 53.33429 | -64.91594 | 38512 ft | 503 kts | 56° |
| 2026-05-05 12:33 | 53.37302 | -64.81859 | 38506 ft | 502 kts | 56° |
| 2026-05-05 12:34 | 53.41163 | -64.72114 | 38499 ft | 502 kts | 56° |
| 2026-05-05 12:34 | 53.44986 | -64.62426 | 38486 ft | 501 kts | 56° |
| 2026-05-05 12:35 | 53.48829 | -64.52652 | 38470 ft | 501 kts | 56° |
| 2026-05-05 12:35 | 53.52660 | -64.42872 | 38450 ft | 501 kts | 56° |
| 2026-05-05 12:36 | 53.56485 | -64.33069 | 38441 ft | 501 kts | 56° |
| 2026-05-05 12:36 | 53.60305 | -64.23239 | 38428 ft | 501 kts | 56° |
| 2026-05-05 12:37 | 53.64113 | -64.13402 | 38433 ft | 501 kts | 57° |
| 2026-05-05 12:37 | 53.67911 | -64.03551 | 38434 ft | 501 kts | 57° |
| 2026-05-05 12:38 | 53.71705 | -63.93673 | 38442 ft | 502 kts | 57° |
| 2026-05-05 12:38 | 53.75497 | -63.83761 | 38448 ft | 502 kts | 57° |
| 2026-05-05 12:39 | 53.79274 | -63.73847 | 38451 ft | 502 kts | 57° |
| 2026-05-05 12:39 | 53.83044 | -63.63914 | 38451 ft | 501 kts | 57° |
| 2026-05-05 12:40 | 53.86803 | -63.53971 | 38448 ft | 501 kts | 57° |
| 2026-05-05 12:40 | 53.90551 | -63.44016 | 38442 ft | 501 kts | 58° |
| 2026-05-05 12:41 | 53.94295 | -63.34033 | 38445 ft | 501 kts | 58° |
| 2026-05-05 12:41 | 53.98026 | -63.24044 | 38435 ft | 501 kts | 58° |
| 2026-05-05 12:42 | 54.01746 | -63.14044 | 38430 ft | 500 kts | 58° |
| 2026-05-05 12:42 | 54.05456 | -63.04030 | 38434 ft | 500 kts | 58° |
| 2026-05-05 12:43 | 54.09154 | -62.94011 | 38418 ft | 499 kts | 58° |
| 2026-05-05 12:43 | 54.12839 | -62.83985 | 38414 ft | 499 kts | 58° |
| 2026-05-05 12:44 | 54.16510 | -62.73955 | 38410 ft | 498 kts | 58° |
| 2026-05-05 12:44 | 54.20169 | -62.63920 | 38400 ft | 497 kts | 58° |
| 2026-05-05 12:45 | 54.23812 | -62.53886 | 38398 ft | 497 kts | 58° |
| 2026-05-05 12:45 | 54.27423 | -62.43901 | 38390 ft | 496 kts | 58° |
| 2026-05-05 12:46 | 54.31047 | -62.33841 | 38384 ft | 496 kts | 58° |
| 2026-05-05 12:46 | 54.34656 | -62.23781 | 38376 ft | 496 kts | 59° |
| 2026-05-05 12:47 | 54.38258 | -62.13698 | 38370 ft | 496 kts | 59° |
| 2026-05-05 12:47 | 54.41849 | -62.03606 | 38368 ft | 496 kts | 59° |
| 2026-05-05 12:48 | 54.45437 | -61.93479 | 38366 ft | 496 kts | 59° |
| 2026-05-05 12:48 | 54.49019 | -61.83330 | 38356 ft | 497 kts | 59° |
| 2026-05-05 12:49 | 54.52599 | -61.73141 | 38354 ft | 498 kts | 59° |
| 2026-05-05 12:49 | 54.56175 | -61.62922 | 38353 ft | 498 kts | 59° |
| 2026-05-05 12:50 | 54.59752 | -61.52662 | 38353 ft | 499 kts | 59° |
| 2026-05-05 12:50 | 54.63322 | -61.42375 | 38347 ft | 499 kts | 59° |
| 2026-05-05 12:51 | 54.66880 | -61.32079 | 38342 ft | 499 kts | 60° |
| 2026-05-05 12:51 | 54.70428 | -61.21770 | 38339 ft | 499 kts | 60° |
| 2026-05-05 12:52 | 54.73970 | -61.11435 | 38338 ft | 499 kts | 60° |
| 2026-05-05 12:52 | 54.77498 | -61.01098 | 38338 ft | 499 kts | 60° |
| 2026-05-05 12:53 | 54.81015 | -60.90745 | 38336 ft | 498 kts | 60° |
| 2026-05-05 12:53 | 54.84529 | -60.80363 | 38334 ft | 498 kts | 60° |
| 2026-05-05 12:54 | 54.89770 | -60.64790 | 38331 ft | 498 kts | 60° |
| 2026-05-05 12:55 | 54.93233 | -60.54446 | 38331 ft | 498 kts | 60° |
| 2026-05-05 12:55 | 54.96709 | -60.44018 | 38329 ft | 498 kts | 60° |
| 2026-05-05 12:56 | 55.00174 | -60.33580 | 38325 ft | 498 kts | 61° |
| 2026-05-05 12:56 | 55.03630 | -60.23122 | 38320 ft | 498 kts | 61° |
| 2026-05-05 12:57 | 55.06498 | -60.14410 | 38319 ft | 498 kts | 61° |
| 2026-05-05 12:57 | 55.09936 | -60.03925 | 38319 ft | 498 kts | 61° |
| 2026-05-05 12:58 | 55.13367 | -59.93413 | 38322 ft | 498 kts | 61° |
| 2026-05-05 12:58 | 55.16804 | -59.82840 | 38314 ft | 498 kts | 61° |
| 2026-05-05 12:59 | 55.20197 | -59.72356 | 38316 ft | 498 kts | 62° |
| 2026-05-05 12:59 | 55.23601 | -59.61794 | 38308 ft | 498 kts | 62° |
| 2026-05-05 13:00 | 55.28681 | -59.45941 | 38308 ft | 497 kts | 62° |
| 2026-05-05 13:01 | 55.35420 | -59.24747 | 38319 ft | 497 kts | 62° |
| 2026-05-05 13:01 | 55.38777 | -59.14120 | 38311 ft | 497 kts | 62° |
| 2026-05-05 13:02 | 55.42117 | -59.03499 | 38312 ft | 496 kts | 62° |
| 2026-05-05 13:02 | 55.45452 | -58.92845 | 38313 ft | 496 kts | 62° |
| 2026-05-05 13:03 | 55.48777 | -58.82178 | 38314 ft | 496 kts | 62° |
| 2026-05-05 13:03 | 55.52088 | -58.71506 | 38317 ft | 496 kts | 63° |
| 2026-05-05 13:04 | 55.55391 | -58.60815 | 38318 ft | 496 kts | 63° |
| 2026-05-05 13:04 | 55.58680 | -58.50119 | 38317 ft | 496 kts | 63° |
| 2026-05-05 13:05 | 55.61962 | -58.39398 | 38316 ft | 496 kts | 63° |
| 2026-05-05 13:05 | 55.65237 | -58.28651 | 38317 ft | 495 kts | 63° |
| 2026-05-05 13:06 | 55.68496 | -58.17909 | 38317 ft | 495 kts | 63° |
| 2026-05-05 13:06 | 55.71747 | -58.07144 | 38320 ft | 495 kts | 63° |
| 2026-05-05 13:07 | 55.74986 | -57.96365 | 38316 ft | 495 kts | 64° |
| 2026-05-05 13:07 | 55.78219 | -57.85562 | 38316 ft | 495 kts | 64° |
| 2026-05-05 13:08 | 55.81417 | -57.74826 | 38321 ft | 495 kts | 64° |
| 2026-05-05 13:08 | 55.84627 | -57.63999 | 38322 ft | 494 kts | 64° |
| 2026-05-05 13:09 | 55.87822 | -57.53174 | 38326 ft | 494 kts | 64° |
| 2026-05-05 13:09 | 55.91010 | -57.42319 | 38315 ft | 494 kts | 64° |
| 2026-05-05 13:10 | 55.94183 | -57.31468 | 38327 ft | 493 kts | 64° |
| 2026-05-05 13:10 | 55.97348 | -57.20593 | 38323 ft | 493 kts | 64° |
| 2026-05-05 13:11 | 56.00500 | -57.09715 | 38328 ft | 493 kts | 64° |
| 2026-05-05 13:11 | 56.03644 | -56.98823 | 38337 ft | 493 kts | 64° |
| 2026-05-05 13:12 | 56.07003 | -56.88128 | 38333 ft | 494 kts | 62° |
| 2026-05-05 13:12 | 56.10508 | -56.77533 | 38335 ft | 494 kts | 61° |
| 2026-05-05 13:13 | 56.13980 | -56.66925 | 38335 ft | 493 kts | 62° |
| 2026-05-05 13:13 | 56.17410 | -56.56264 | 38347 ft | 492 kts | 63° |
| 2026-05-05 13:14 | 56.20809 | -56.45590 | 38341 ft | 492 kts | 63° |
| 2026-05-05 13:14 | 56.24191 | -56.34917 | 38352 ft | 491 kts | 63° |
| 2026-05-05 13:15 | 56.27556 | -56.24257 | 38359 ft | 490 kts | 63° |
| 2026-05-05 13:15 | 56.30913 | -56.13582 | 38361 ft | 489 kts | 63° |
| 2026-05-05 13:16 | 56.34254 | -56.02907 | 38372 ft | 489 kts | 63° |
| 2026-05-05 13:16 | 56.37587 | -55.92210 | 38384 ft | 489 kts | 63° |
| 2026-05-05 13:17 | 56.40904 | -55.81513 | 38386 ft | 488 kts | 64° |
| 2026-05-05 13:17 | 56.44212 | -55.70802 | 38380 ft | 488 kts | 63° |
| 2026-05-05 13:18 | 56.47514 | -55.60065 | 38393 ft | 488 kts | 64° |
| 2026-05-05 13:18 | 56.50801 | -55.49323 | 38394 ft | 488 kts | 64° |
| 2026-05-05 13:19 | 56.54077 | -55.38571 | 38404 ft | 487 kts | 64° |
| 2026-05-05 13:19 | 56.57345 | -55.27792 | 38408 ft | 487 kts | 65° |
| 2026-05-05 13:20 | 56.60597 | -55.17016 | 38414 ft | 487 kts | 64° |
| 2026-05-05 13:20 | 56.63838 | -55.06225 | 38421 ft | 486 kts | 64° |
| 2026-05-05 13:21 | 56.67068 | -54.95427 | 38432 ft | 486 kts | 64° |
| 2026-05-05 13:21 | 56.70287 | -54.84619 | 38433 ft | 486 kts | 65° |
| 2026-05-05 13:22 | 56.73493 | -54.73795 | 38438 ft | 485 kts | 65° |
| 2026-05-05 13:22 | 56.76688 | -54.62967 | 38445 ft | 485 kts | 65° |
| 2026-05-05 13:23 | 56.79850 | -54.52197 | 38452 ft | 484 kts | 65° |
| 2026-05-05 13:23 | 56.83019 | -54.41354 | 38460 ft | 484 kts | 65° |
| 2026-05-05 13:24 | 56.86175 | -54.30503 | 38464 ft | 484 kts | 65° |
| 2026-05-05 13:24 | 56.89323 | -54.19629 | 38468 ft | 484 kts | 66° |
| 2026-05-05 13:25 | 56.92462 | -54.08734 | 38480 ft | 484 kts | 65° |
| 2026-05-05 13:25 | 56.95589 | -53.97829 | 38486 ft | 483 kts | 65° |
| 2026-05-05 13:26 | 56.98707 | -53.86909 | 38495 ft | 483 kts | 66° |
| 2026-05-05 13:26 | 57.01812 | -53.75983 | 38501 ft | 483 kts | 66° |
| 2026-05-05 13:27 | 57.04905 | -53.65046 | 38510 ft | 482 kts | 66° |
| 2026-05-05 13:27 | 57.07983 | -53.54111 | 38520 ft | 482 kts | 66° |
| 2026-05-05 13:28 | 57.11050 | -53.43158 | 38528 ft | 481 kts | 66° |
| 2026-05-05 13:28 | 57.14103 | -53.32203 | 38528 ft | 481 kts | 66° |
| 2026-05-05 13:29 | 57.17146 | -53.21235 | 38547 ft | 481 kts | 66° |
| 2026-05-05 13:29 | 57.20180 | -53.10252 | 38548 ft | 481 kts | 66° |
| 2026-05-05 13:30 | 57.23203 | -52.99251 | 38556 ft | 481 kts | 66° |
| 2026-05-05 13:30 | 57.26217 | -52.88226 | 38566 ft | 481 kts | 67° |
| 2026-05-05 13:31 | 57.29217 | -52.77202 | 38571 ft | 481 kts | 66° |
| 2026-05-05 13:31 | 57.32213 | -52.66140 | 38580 ft | 481 kts | 67° |
| 2026-05-05 13:32 | 57.35195 | -52.55076 | 38586 ft | 481 kts | 67° |
| 2026-05-05 13:32 | 57.38169 | -52.43984 | 38595 ft | 481 kts | 67° |
| 2026-05-05 13:33 | 57.41133 | -52.32877 | 38603 ft | 480 kts | 67° |
| 2026-05-05 13:33 | 57.44087 | -52.21756 | 38608 ft | 480 kts | 67° |
| 2026-05-05 13:34 | 57.47028 | -52.10628 | 38622 ft | 480 kts | 68° |
| 2026-05-05 13:34 | 57.49958 | -51.99483 | 38627 ft | 480 kts | 68° |
| 2026-05-05 13:35 | 57.52880 | -51.88316 | 38636 ft | 480 kts | 68° |
| 2026-05-05 13:35 | 57.55792 | -51.77131 | 38643 ft | 480 kts | 68° |
| 2026-05-05 13:36 | 57.58690 | -51.65944 | 38647 ft | 480 kts | 68° |
| 2026-05-05 13:36 | 57.61583 | -51.54722 | 38655 ft | 479 kts | 68° |
| 2026-05-05 13:37 | 57.64459 | -51.43506 | 38664 ft | 479 kts | 68° |
| 2026-05-05 13:37 | 57.67323 | -51.32283 | 38672 ft | 479 kts | 68° |
| 2026-05-05 13:38 | 57.69697 | -51.22935 | 38678 ft | 479 kts | 68° |
| 2026-05-05 13:38 | 57.73003 | -51.09852 | 38687 ft | 478 kts | 69° |
| 2026-05-05 13:39 | 57.75836 | -50.98579 | 38694 ft | 478 kts | 69° |
| 2026-05-05 13:39 | 57.78658 | -50.87293 | 38713 ft | 478 kts | 69° |
| 2026-05-05 13:40 | 57.81015 | -50.77824 | 38716 ft | 478 kts | 69° |
| 2026-05-05 13:40 | 57.83801 | -50.66574 | 38718 ft | 479 kts | 69° |
| 2026-05-05 13:41 | 57.86597 | -50.55230 | 38723 ft | 478 kts | 69° |
| 2026-05-05 13:41 | 57.89381 | -50.43874 | 38731 ft | 478 kts | 69° |
| 2026-05-05 13:42 | 57.92153 | -50.32505 | 38740 ft | 478 kts | 69° |
| 2026-05-05 13:42 | 57.94915 | -50.21121 | 38743 ft | 478 kts | 69° |
| 2026-05-05 13:43 | 57.97665 | -50.09731 | 38752 ft | 478 kts | 70° |
| 2026-05-05 13:43 | 58.00268 | -49.98222 | 38765 ft | 474 kts | 75° |
| 2026-05-05 13:44 | 58.02038 | -49.86306 | 38773 ft | 471 kts | 79° |
| 2026-05-05 13:44 | 58.03670 | -49.74336 | 38773 ft | 471 kts | 79° |
| 2026-05-05 13:45 | 58.05311 | -49.62359 | 38785 ft | 471 kts | 79° |
| 2026-05-05 13:45 | 58.06963 | -49.50387 | 38787 ft | 471 kts | 79° |
| 2026-05-05 13:46 | 58.08615 | -49.38408 | 38792 ft | 471 kts | 79° |
| 2026-05-05 13:46 | 58.10254 | -49.26429 | 38803 ft | 471 kts | 79° |
| 2026-05-05 13:47 | 58.11882 | -49.14432 | 38803 ft | 471 kts | 79° |
| 2026-05-05 13:47 | 58.13496 | -49.02437 | 38815 ft | 470 kts | 80° |
| 2026-05-05 13:48 | 58.15099 | -48.90436 | 38825 ft | 470 kts | 80° |
| 2026-05-05 13:48 | 58.16690 | -48.78422 | 38841 ft | 470 kts | 80° |
| 2026-05-05 13:49 | 58.18271 | -48.66389 | 38839 ft | 470 kts | 80° |
| 2026-05-05 13:49 | 58.19839 | -48.54353 | 38843 ft | 470 kts | 80° |
| 2026-05-05 13:50 | 58.21397 | -48.42304 | 38851 ft | 470 kts | 80° |
| 2026-05-05 13:50 | 58.22942 | -48.30255 | 38859 ft | 470 kts | 81° |
| 2026-05-05 13:51 | 58.24473 | -48.18218 | 38861 ft | 469 kts | 81° |
| 2026-05-05 13:51 | 58.25982 | -48.06250 | 38871 ft | 469 kts | 81° |
| 2026-05-05 13:52 | 58.27487 | -47.94217 | 38877 ft | 468 kts | 81° |
| 2026-05-05 13:52 | 58.28980 | -47.82187 | 38881 ft | 467 kts | 81° |
| 2026-05-05 13:53 | 58.30461 | -47.70143 | 38887 ft | 467 kts | 81° |
| 2026-05-05 13:53 | 58.31927 | -47.58124 | 38898 ft | 466 kts | 81° |
| 2026-05-05 13:54 | 58.33380 | -47.46105 | 38901 ft | 466 kts | 81° |
| 2026-05-05 13:54 | 58.34819 | -47.34103 | 38909 ft | 465 kts | 81° |
| 2026-05-05 13:55 | 58.36247 | -47.22088 | 38919 ft | 465 kts | 81° |
| 2026-05-05 13:55 | 58.37661 | -47.10088 | 38924 ft | 464 kts | 81° |
| 2026-05-05 13:56 | 58.39061 | -46.98096 | 38931 ft | 463 kts | 82° |
| 2026-05-05 13:56 | 58.40450 | -46.86100 | 38939 ft | 463 kts | 82° |
| 2026-05-05 13:57 | 58.41827 | -46.74101 | 38945 ft | 462 kts | 82° |
| 2026-05-05 13:57 | 58.43188 | -46.62132 | 38952 ft | 461 kts | 82° |
| 2026-05-05 13:58 | 58.44526 | -46.50261 | 38964 ft | 460 kts | 82° |
| 2026-05-05 13:58 | 58.45859 | -46.38332 | 38969 ft | 458 kts | 83° |
| 2026-05-05 13:59 | 58.47829 | -46.20491 | 38966 ft | 457 kts | 83° |
| 2026-05-05 14:00 | 58.49558 | -46.04627 | 38977 ft | 455 kts | 83° |
| 2026-05-05 14:00 | 58.51042 | -45.90872 | 38990 ft | 453 kts | 83° |
| 2026-05-05 14:01 | 58.52292 | -45.79189 | 38990 ft | 443 kts | 83° |
| 2026-05-05 14:01 | 58.53518 | -45.67560 | 39008 ft | 449 kts | 83° |
| 2026-05-05 14:02 | 58.54739 | -45.55867 | 38997 ft | 443 kts | 84° |
| 2026-05-05 14:02 | 58.55938 | -45.44273 | 39029 ft | 447 kts | 83° |
| 2026-05-05 14:03 | 58.57143 | -45.32573 | 39020 ft | 447 kts | 84° |
| 2026-05-05 14:03 | 58.58329 | -45.20921 | 39024 ft | 443 kts | 84° |
| 2026-05-05 14:04 | 58.59503 | -45.09274 | 39046 ft | 449 kts | 84° |
| 2026-05-05 14:04 | 58.60681 | -44.97465 | 39044 ft | 451 kts | 84° |
| 2026-05-05 14:05 | 58.61847 | -44.85709 | 39040 ft | 444 kts | 84° |
| 2026-05-05 14:05 | 58.62990 | -44.74012 | 39069 ft | 448 kts | 84° |
| 2026-05-05 14:06 | 58.64125 | -44.62310 | 39066 ft | 447 kts | 84° |
| 2026-05-05 14:06 | 58.65250 | -44.50539 | 39076 ft | 448 kts | 84° |
| 2026-05-05 14:07 | 58.66366 | -44.38818 | 39074 ft | 446 kts | 84° |
| 2026-05-05 14:07 | 58.67473 | -44.27016 | 39089 ft | 450 kts | 84° |
| 2026-05-05 14:08 | 58.68573 | -44.15254 | 39091 ft | 446 kts | 84° |
| 2026-05-05 14:08 | 58.69660 | -44.03440 | 39097 ft | 450 kts | 84° |
| 2026-05-05 14:09 | 58.70733 | -43.91662 | 39101 ft | 448 kts | 84° |
| 2026-05-05 14:09 | 58.71795 | -43.79864 | 39111 ft | 450 kts | 84° |
| 2026-05-05 14:10 | 58.72853 | -43.67939 | 39116 ft | 452 kts | 84° |
| 2026-05-05 14:10 | 58.73902 | -43.56070 | 39121 ft | 452 kts | 85° |
| 2026-05-05 14:11 | 58.74946 | -43.44062 | 39130 ft | 457 kts | 84° |
| 2026-05-05 14:11 | 58.75989 | -43.31958 | 39136 ft | 458 kts | 84° |
| 2026-05-05 14:12 | 58.77026 | -43.19805 | 39150 ft | 462 kts | 85° |
| 2026-05-05 14:12 | 58.78059 | -43.07591 | 39153 ft | 462 kts | 84° |
| 2026-05-05 14:13 | 58.79077 | -42.95364 | 39156 ft | 462 kts | 84° |
| 2026-05-05 14:13 | 58.80081 | -42.83107 | 39161 ft | 463 kts | 84° |
| 2026-05-05 14:14 | 58.81078 | -42.70841 | 39164 ft | 463 kts | 84° |
| 2026-05-05 14:14 | 58.82067 | -42.58529 | 39166 ft | 464 kts | 84° |
| 2026-05-05 14:15 | 58.83043 | -42.46212 | 39176 ft | 465 kts | 84° |
| 2026-05-05 14:15 | 58.84009 | -42.33844 | 39183 ft | 466 kts | 84° |
| 2026-05-05 14:16 | 58.84964 | -42.21465 | 39187 ft | 466 kts | 84° |
| 2026-05-05 14:16 | 58.85910 | -42.09069 | 39189 ft | 467 kts | 84° |
| 2026-05-05 14:17 | 58.86846 | -41.96654 | 39190 ft | 467 kts | 84° |
| 2026-05-05 14:17 | 58.87769 | -41.84232 | 39193 ft | 467 kts | 84° |
| 2026-05-05 14:18 | 58.88679 | -41.71789 | 39197 ft | 467 kts | 84° |
| 2026-05-05 14:18 | 58.89579 | -41.59338 | 39197 ft | 468 kts | 84° |
| 2026-05-05 14:19 | 58.90463 | -41.46947 | 39203 ft | 468 kts | 84° |
| 2026-05-05 14:19 | 58.91339 | -41.34483 | 39207 ft | 467 kts | 84° |
| 2026-05-05 14:20 | 58.92201 | -41.22024 | 39211 ft | 467 kts | 84° |
| 2026-05-05 14:20 | 58.93051 | -41.09579 | 39214 ft | 467 kts | 84° |
| 2026-05-05 14:21 | 58.93888 | -40.97127 | 39217 ft | 467 kts | 84° |
| 2026-05-05 14:21 | 58.94714 | -40.84666 | 39215 ft | 466 kts | 84° |
| 2026-05-05 14:22 | 58.95529 | -40.72194 | 39221 ft | 466 kts | 84° |
| 2026-05-05 14:22 | 58.96330 | -40.59721 | 39224 ft | 466 kts | 84° |
| 2026-05-05 14:23 | 58.97120 | -40.47244 | 39227 ft | 466 kts | 84° |
| 2026-05-05 14:23 | 58.97897 | -40.34771 | 39230 ft | 467 kts | 84° |
| 2026-05-05 14:24 | 58.98535 | -40.24381 | 39227 ft | 467 kts | 84° |
| 2026-05-05 14:24 | 58.99294 | -40.11868 | 39237 ft | 467 kts | 84° |
| 2026-05-05 14:25 | 59.00152 | -39.97294 | 39233 ft | 468 kts | 85° |
| 2026-05-05 14:25 | 59.00594 | -39.86762 | 39242 ft | 468 kts | 87° |
| 2026-05-05 14:26 | 59.01014 | -39.74159 | 39239 ft | 468 kts | 87° |
| 2026-05-05 14:26 | 59.01434 | -39.61517 | 39238 ft | 470 kts | 87° |
| 2026-05-05 14:27 | 59.01867 | -39.48864 | 39238 ft | 470 kts | 87° |
| 2026-05-05 14:27 | 59.02300 | -39.36191 | 39241 ft | 470 kts | 86° |
| 2026-05-05 14:28 | 59.02723 | -39.23522 | 39245 ft | 470 kts | 86° |
| 2026-05-05 14:28 | 59.03132 | -39.10837 | 39241 ft | 471 kts | 87° |
| 2026-05-05 14:29 | 59.03528 | -38.98157 | 39253 ft | 471 kts | 87° |
| 2026-05-05 14:29 | 59.03912 | -38.85463 | 39246 ft | 471 kts | 87° |
| 2026-05-05 14:30 | 59.04282 | -38.72763 | 39251 ft | 471 kts | 87° |
| 2026-05-05 14:30 | 59.04639 | -38.60139 | 39255 ft | 471 kts | 87° |
| 2026-05-05 14:31 | 59.04986 | -38.47426 | 39251 ft | 471 kts | 87° |
| 2026-05-05 14:31 | 59.05320 | -38.34704 | 39253 ft | 472 kts | 87° |
| 2026-05-05 14:32 | 59.05642 | -38.21972 | 39260 ft | 472 kts | 87° |
| 2026-05-05 14:32 | 59.05952 | -38.09221 | 39257 ft | 473 kts | 87° |
| 2026-05-05 14:33 | 59.06250 | -37.96457 | 39263 ft | 473 kts | 87° |
| 2026-05-05 14:33 | 59.06536 | -37.83658 | 39263 ft | 474 kts | 87° |
| 2026-05-05 14:34 | 59.06809 | -37.70849 | 39263 ft | 474 kts | 87° |
| 2026-05-05 14:34 | 59.07070 | -37.58034 | 39265 ft | 475 kts | 87° |
| 2026-05-05 14:35 | 59.07319 | -37.45185 | 39263 ft | 476 kts | 87° |
| 2026-05-05 14:35 | 59.07555 | -37.32332 | 39258 ft | 476 kts | 87° |
| 2026-05-05 14:36 | 59.07779 | -37.19459 | 39263 ft | 477 kts | 87° |
| 2026-05-05 14:36 | 59.07991 | -37.06554 | 39262 ft | 477 kts | 87° |
| 2026-05-05 14:37 | 59.08190 | -36.93649 | 39262 ft | 478 kts | 88° |
| 2026-05-05 14:37 | 59.08376 | -36.80726 | 39262 ft | 478 kts | 88° |
| 2026-05-05 14:38 | 59.08549 | -36.67809 | 39270 ft | 478 kts | 88° |
| 2026-05-05 14:38 | 59.08710 | -36.54868 | 39268 ft | 479 kts | 88° |
| 2026-05-05 14:39 | 59.08856 | -36.42001 | 39264 ft | 479 kts | 88° |
| 2026-05-05 14:39 | 59.08992 | -36.28973 | 39262 ft | 479 kts | 88° |
| 2026-05-05 14:40 | 59.09114 | -36.16081 | 39266 ft | 480 kts | 88° |
| 2026-05-05 14:40 | 59.09223 | -36.03105 | 39270 ft | 480 kts | 88° |
| 2026-05-05 14:41 | 59.09320 | -35.90104 | 39263 ft | 481 kts | 88° |
| 2026-05-05 14:41 | 59.09403 | -35.77104 | 39266 ft | 481 kts | 88° |
| 2026-05-05 14:42 | 59.09474 | -35.64086 | 39262 ft | 482 kts | 88° |
| 2026-05-05 14:42 | 59.09532 | -35.51028 | 39264 ft | 483 kts | 88° |
| 2026-05-05 14:43 | 59.09577 | -35.37968 | 39265 ft | 483 kts | 88° |
| 2026-05-05 14:43 | 59.09608 | -35.24883 | 39259 ft | 484 kts | 88° |
| 2026-05-05 14:44 | 59.09627 | -35.11789 | 39262 ft | 484 kts | 88° |
| 2026-05-05 14:44 | 59.09632 | -34.98679 | 39265 ft | 485 kts | 88° |
| 2026-05-05 14:45 | 59.09624 | -34.85543 | 39263 ft | 486 kts | 88° |
| 2026-05-05 14:45 | 59.09603 | -34.72398 | 39258 ft | 486 kts | 88° |
| 2026-05-05 14:46 | 59.09568 | -34.59235 | 39259 ft | 487 kts | 89° |
| 2026-05-05 14:46 | 59.09520 | -34.46048 | 39255 ft | 488 kts | 89° |
| 2026-05-05 14:47 | 59.09458 | -34.32840 | 39256 ft | 488 kts | 89° |
| 2026-05-05 14:47 | 59.09383 | -34.19629 | 39256 ft | 489 kts | 89° |
| 2026-05-05 14:48 | 59.09295 | -34.06397 | 39254 ft | 489 kts | 89° |
| 2026-05-05 14:48 | 59.09193 | -33.93156 | 39255 ft | 490 kts | 89° |
| 2026-05-05 14:49 | 59.09078 | -33.79978 | 39261 ft | 491 kts | 89° |
| 2026-05-05 14:49 | 59.08948 | -33.66685 | 39251 ft | 491 kts | 89° |
| 2026-05-05 14:50 | 59.08805 | -33.53397 | 39242 ft | 492 kts | 89° |
| 2026-05-05 14:50 | 59.08648 | -33.40093 | 39251 ft | 492 kts | 89° |
| 2026-05-05 14:51 | 59.08477 | -33.26772 | 39246 ft | 493 kts | 89° |
| 2026-05-05 14:51 | 59.08293 | -33.13425 | 39254 ft | 494 kts | 89° |
| 2026-05-05 14:52 | 59.08094 | -33.00074 | 39246 ft | 494 kts | 89° |
| 2026-05-05 14:52 | 59.07881 | -32.86704 | 39243 ft | 495 kts | 89° |
| 2026-05-05 14:53 | 59.07655 | -32.73325 | 39240 ft | 496 kts | 89° |
| 2026-05-05 14:53 | 59.07414 | -32.59911 | 39243 ft | 496 kts | 89° |
| 2026-05-05 14:54 | 59.07159 | -32.46494 | 39241 ft | 497 kts | 89° |
| 2026-05-05 14:54 | 59.06889 | -32.33054 | 39241 ft | 498 kts | 89° |
| 2026-05-05 14:55 | 59.06606 | -32.19597 | 39240 ft | 498 kts | 90° |
| 2026-05-05 14:55 | 59.06308 | -32.06137 | 39240 ft | 499 kts | 90° |
| 2026-05-05 14:56 | 59.05996 | -31.92662 | 39239 ft | 500 kts | 90° |
| 2026-05-05 14:56 | 59.05670 | -31.79164 | 39239 ft | 500 kts | 90° |
| 2026-05-05 14:57 | 59.05329 | -31.65662 | 39242 ft | 501 kts | 90° |
| 2026-05-05 14:57 | 59.04973 | -31.52143 | 39236 ft | 502 kts | 90° |
| 2026-05-05 14:58 | 59.04603 | -31.38596 | 39237 ft | 502 kts | 90° |
| 2026-05-05 14:58 | 59.04218 | -31.25032 | 39233 ft | 503 kts | 90° |
| 2026-05-05 14:59 | 59.03818 | -31.11456 | 39235 ft | 503 kts | 90° |
| 2026-05-05 14:59 | 59.03405 | -30.97901 | 39235 ft | 503 kts | 90° |
| 2026-05-05 15:00 | 59.03051 | -30.86621 | 39230 ft | 503 kts | 90° |
| 2026-05-05 15:00 | 59.02538 | -30.70848 | 39230 ft | 504 kts | 90° |
| 2026-05-05 15:01 | 59.02081 | -30.57267 | 39241 ft | 504 kts | 90° |
| 2026-05-05 15:01 | 59.01610 | -30.43679 | 39230 ft | 505 kts | 90° |
| 2026-05-05 15:02 | 59.01125 | -30.30095 | 39231 ft | 505 kts | 90° |
| 2026-05-05 15:02 | 59.00625 | -30.16478 | 39219 ft | 506 kts | 90° |
| 2026-05-05 15:03 | 59.00122 | -30.02860 | 39232 ft | 505 kts | 89° |
| 2026-05-05 15:03 | 59.00293 | -29.89309 | 39224 ft | 501 kts | 82° |
| 2026-05-05 15:04 | 59.00842 | -29.75822 | 39224 ft | 501 kts | 81° |
| 2026-05-05 15:04 | 59.01381 | -29.62336 | 39227 ft | 502 kts | 81° |
| 2026-05-05 15:05 | 59.02107 | -29.42044 | 39226 ft | 503 kts | 82° |
| 2026-05-05 15:06 | 59.02560 | -29.28493 | 39225 ft | 503 kts | 82° |
| 2026-05-05 15:06 | 59.02998 | -29.14925 | 39222 ft | 504 kts | 82° |
| 2026-05-05 15:07 | 59.03425 | -29.01347 | 39225 ft | 504 kts | 82° |
| 2026-05-05 15:07 | 59.03838 | -28.87764 | 39227 ft | 504 kts | 82° |
| 2026-05-05 15:08 | 59.04238 | -28.74160 | 39215 ft | 504 kts | 82° |
| 2026-05-05 15:08 | 59.04559 | -28.62860 | 39229 ft | 505 kts | 82° |
| 2026-05-05 15:09 | 59.04993 | -28.47022 | 39220 ft | 505 kts | 82° |
| 2026-05-05 15:09 | 59.05293 | -28.35595 | 39221 ft | 505 kts | 82° |
| 2026-05-05 15:10 | 59.05639 | -28.21958 | 39218 ft | 506 kts | 82° |
| 2026-05-05 15:10 | 59.05971 | -28.08301 | 39220 ft | 506 kts | 83° |
| 2026-05-05 15:11 | 59.06288 | -27.94644 | 39220 ft | 506 kts | 83° |
| 2026-05-05 15:11 | 59.06591 | -27.80974 | 39221 ft | 506 kts | 83° |
| 2026-05-05 15:12 | 59.06879 | -27.67303 | 39219 ft | 506 kts | 83° |
| 2026-05-05 15:12 | 59.07154 | -27.53639 | 39221 ft | 506 kts | 83° |
| 2026-05-05 15:13 | 59.07414 | -27.39948 | 39219 ft | 506 kts | 83° |
| 2026-05-05 15:13 | 59.07659 | -27.26267 | 39221 ft | 506 kts | 83° |
| 2026-05-05 15:14 | 59.07890 | -27.12578 | 39219 ft | 506 kts | 83° |
| 2026-05-05 15:14 | 59.08108 | -26.98887 | 39225 ft | 506 kts | 83° |
| 2026-05-05 15:15 | 59.08310 | -26.85200 | 39227 ft | 506 kts | 83° |
| 2026-05-05 15:15 | 59.08498 | -26.71518 | 39225 ft | 506 kts | 83° |
| 2026-05-05 15:15 | 59.08587 | -26.64671 | 39327 ft | 508 kts | 83° |
| 2026-05-05 15:16 | 59.08672 | -26.57811 | 39554 ft | 506 kts | 84° |
| 2026-05-05 15:16 | 59.08752 | -26.50976 | 39804 ft | 505 kts | 84° |
| 2026-05-05 15:16 | 59.08829 | -26.44141 | 40026 ft | 505 kts | 84° |
| 2026-05-05 15:16 | 59.08903 | -26.37321 | 40204 ft | 505 kts | 84° |
| 2026-05-05 15:17 | 59.08974 | -26.30488 | 40382 ft | 505 kts | 84° |
| 2026-05-05 15:17 | 59.09041 | -26.23649 | 40567 ft | 505 kts | 84° |
| 2026-05-05 15:17 | 59.09105 | -26.16825 | 40743 ft | 505 kts | 85° |
| 2026-05-05 15:17 | 59.09164 | -26.09989 | 40918 ft | 506 kts | 85° |
| 2026-05-05 15:18 | 59.09220 | -26.03149 | 41093 ft | 506 kts | 85° |
| 2026-05-05 15:18 | 59.09322 | -25.89509 | 41205 ft | 509 kts | 85° |
| 2026-05-05 15:19 | 59.09410 | -25.75752 | 41224 ft | 508 kts | 85° |
| 2026-05-05 15:19 | 59.09481 | -25.62064 | 41232 ft | 506 kts | 85° |
| 2026-05-05 15:20 | 59.09539 | -25.48399 | 41232 ft | 504 kts | 85° |
| 2026-05-05 15:20 | 59.09583 | -25.34775 | 41232 ft | 503 kts | 85° |
| 2026-05-05 15:21 | 59.09612 | -25.21154 | 41233 ft | 503 kts | 86° |
| 2026-05-05 15:21 | 59.09628 | -25.07460 | 41234 ft | 503 kts | 86° |
| 2026-05-05 15:22 | 59.09629 | -24.93840 | 41237 ft | 504 kts | 86° |
| 2026-05-05 15:22 | 59.09615 | -24.80281 | 41239 ft | 504 kts | 86° |
| 2026-05-05 15:23 | 59.09587 | -24.66628 | 41234 ft | 505 kts | 86° |
| 2026-05-05 15:23 | 59.09545 | -24.52954 | 41234 ft | 506 kts | 86° |
| 2026-05-05 15:24 | 59.09488 | -24.39245 | 41233 ft | 507 kts | 86° |
| 2026-05-05 15:24 | 59.09417 | -24.25535 | 41234 ft | 507 kts | 87° |
| 2026-05-05 15:25 | 59.09331 | -24.11816 | 41248 ft | 507 kts | 87° |
| 2026-05-05 15:25 | 59.09231 | -23.98081 | 41248 ft | 507 kts | 87° |
| 2026-05-05 15:26 | 59.09116 | -23.84357 | 41244 ft | 508 kts | 87° |
| 2026-05-05 15:26 | 59.08986 | -23.70627 | 41244 ft | 508 kts | 88° |
| 2026-05-05 15:27 | 59.08843 | -23.56905 | 41250 ft | 507 kts | 88° |
| 2026-05-05 15:27 | 59.08684 | -23.43185 | 41253 ft | 507 kts | 88° |
| 2026-05-05 15:28 | 59.08511 | -23.29453 | 41254 ft | 507 kts | 88° |
| 2026-05-05 15:28 | 59.08324 | -23.15729 | 41255 ft | 507 kts | 88° |
| 2026-05-05 15:29 | 59.08124 | -23.02107 | 41257 ft | 507 kts | 88° |
| 2026-05-05 15:29 | 59.07908 | -22.88393 | 41252 ft | 508 kts | 88° |
| 2026-05-05 15:30 | 59.07677 | -22.74671 | 41254 ft | 508 kts | 89° |
| 2026-05-05 15:30 | 59.07432 | -22.60956 | 41257 ft | 508 kts | 89° |
| 2026-05-05 15:31 | 59.07172 | -22.47236 | 41261 ft | 508 kts | 89° |
| 2026-05-05 15:31 | 59.06898 | -22.33499 | 41258 ft | 509 kts | 89° |
| 2026-05-05 15:32 | 59.06609 | -22.19767 | 41257 ft | 509 kts | 89° |
| 2026-05-05 15:32 | 59.06305 | -22.06014 | 41261 ft | 509 kts | 89° |
| 2026-05-05 15:33 | 59.05986 | -21.92275 | 41256 ft | 509 kts | 89° |
| 2026-05-05 15:33 | 59.05653 | -21.78510 | 41261 ft | 510 kts | 90° |
| 2026-05-05 15:34 | 59.05305 | -21.64753 | 41259 ft | 510 kts | 90° |
| 2026-05-05 15:34 | 59.04942 | -21.50993 | 41260 ft | 510 kts | 90° |
| 2026-05-05 15:35 | 59.04564 | -21.37226 | 41259 ft | 510 kts | 90° |
| 2026-05-05 15:35 | 59.04172 | -21.23468 | 41268 ft | 510 kts | 90° |
| 2026-05-05 15:36 | 59.03766 | -21.09714 | 41261 ft | 510 kts | 90° |
| 2026-05-05 15:36 | 59.03348 | -20.96055 | 41257 ft | 510 kts | 91° |
| 2026-05-05 15:37 | 59.02909 | -20.82223 | 41264 ft | 510 kts | 91° |
| 2026-05-05 15:37 | 59.02460 | -20.68488 | 41263 ft | 510 kts | 91° |
| 2026-05-05 15:38 | 59.01998 | -20.54837 | 41261 ft | 510 kts | 91° |
| 2026-05-05 15:38 | 59.01520 | -20.41118 | 41259 ft | 510 kts | 91° |
| 2026-05-05 15:39 | 59.01027 | -20.27384 | 41261 ft | 510 kts | 91° |
| 2026-05-05 15:39 | 59.00521 | -20.13659 | 41260 ft | 510 kts | 91° |
| 2026-05-05 15:40 | 58.99833 | -19.99945 | 41271 ft | 512 kts | 97° |
| 2026-05-05 15:40 | 58.98078 | -19.86560 | 41262 ft | 514 kts | 105° |
| 2026-05-05 15:41 | 58.95976 | -19.73318 | 41263 ft | 514 kts | 105° |
| 2026-05-05 15:41 | 58.93874 | -19.60078 | 41261 ft | 514 kts | 105° |
| 2026-05-05 15:42 | 58.91799 | -19.46844 | 41260 ft | 514 kts | 105° |
| 2026-05-05 15:42 | 58.89724 | -19.33594 | 41258 ft | 514 kts | 105° |
| 2026-05-05 15:43 | 58.87637 | -19.20365 | 41258 ft | 514 kts | 105° |
| 2026-05-05 15:43 | 58.85534 | -19.07150 | 41254 ft | 514 kts | 105° |
| 2026-05-05 15:44 | 58.83416 | -18.93958 | 41259 ft | 514 kts | 105° |
| 2026-05-05 15:44 | 58.81284 | -18.80774 | 41251 ft | 515 kts | 106° |
| 2026-05-05 15:45 | 58.79136 | -18.67594 | 41249 ft | 515 kts | 106° |
| 2026-05-05 15:45 | 58.76978 | -18.54448 | 41246 ft | 515 kts | 106° |
| 2026-05-05 15:46 | 58.74806 | -18.41313 | 41248 ft | 515 kts | 106° |
| 2026-05-05 15:46 | 58.72620 | -18.28194 | 41246 ft | 515 kts | 106° |
| 2026-05-05 15:47 | 58.70419 | -18.15075 | 41242 ft | 515 kts | 107° |
| 2026-05-05 15:47 | 58.68221 | -18.02074 | 41239 ft | 515 kts | 107° |
| 2026-05-05 15:48 | 58.65996 | -17.89007 | 41237 ft | 515 kts | 107° |
| 2026-05-05 15:48 | 58.63756 | -17.75950 | 41236 ft | 515 kts | 107° |
| 2026-05-05 15:49 | 58.61504 | -17.62912 | 41236 ft | 515 kts | 107° |
| 2026-05-05 15:49 | 58.59240 | -17.49899 | 41231 ft | 514 kts | 107° |
| 2026-05-05 15:50 | 58.56961 | -17.36894 | 41231 ft | 514 kts | 107° |
| 2026-05-05 15:50 | 58.54671 | -17.23914 | 41229 ft | 514 kts | 107° |
| 2026-05-05 15:51 | 58.52367 | -17.10949 | 41225 ft | 514 kts | 108° |
| 2026-05-05 15:51 | 58.50051 | -16.98005 | 41227 ft | 514 kts | 108° |
| 2026-05-05 15:52 | 58.47722 | -16.85080 | 41225 ft | 514 kts | 108° |
| 2026-05-05 15:52 | 58.45777 | -16.74349 | 41226 ft | 514 kts | 108° |
| 2026-05-05 15:53 | 58.43424 | -16.61452 | 41224 ft | 514 kts | 108° |
| 2026-05-05 15:53 | 58.41060 | -16.48588 | 41223 ft | 514 kts | 108° |
| 2026-05-05 15:54 | 58.38683 | -16.35736 | 41220 ft | 514 kts | 108° |
| 2026-05-05 15:54 | 58.36292 | -16.22894 | 41219 ft | 514 kts | 108° |
| 2026-05-05 15:55 | 58.33889 | -16.10079 | 41218 ft | 514 kts | 109° |
| 2026-05-05 15:55 | 58.31474 | -15.97281 | 41215 ft | 514 kts | 109° |
| 2026-05-05 15:56 | 58.29046 | -15.84498 | 41213 ft | 514 kts | 109° |
| 2026-05-05 15:56 | 58.26608 | -15.71749 | 41212 ft | 513 kts | 109° |
| 2026-05-05 15:57 | 58.24158 | -15.59023 | 41210 ft | 513 kts | 109° |
| 2026-05-05 15:57 | 58.21696 | -15.46313 | 41209 ft | 513 kts | 109° |
| 2026-05-05 15:58 | 58.19217 | -15.33606 | 41210 ft | 513 kts | 109° |
| 2026-05-05 15:58 | 58.16731 | -15.20940 | 41209 ft | 513 kts | 110° |
| 2026-05-05 15:59 | 58.14233 | -15.08295 | 41211 ft | 513 kts | 110° |
| 2026-05-05 15:59 | 58.12977 | -15.01967 | 41212 ft | 513 kts | 110° |
| 2026-05-05 16:00 | 58.11071 | -14.92400 | 41207 ft | 513 kts | 110° |
| 2026-05-05 16:00 | 58.08561 | -14.79878 | 41215 ft | 513 kts | 110° |
| 2026-05-05 16:01 | 58.06024 | -14.67296 | 41209 ft | 513 kts | 110° |
| 2026-05-05 16:01 | 58.03469 | -14.54709 | 41209 ft | 513 kts | 110° |
| 2026-05-05 16:02 | 58.00903 | -14.42144 | 41206 ft | 513 kts | 110° |
| 2026-05-05 16:02 | 57.98325 | -14.29599 | 41210 ft | 513 kts | 111° |
| 2026-05-05 16:03 | 57.95736 | -14.17077 | 41206 ft | 513 kts | 111° |
| 2026-05-05 16:03 | 57.93135 | -14.04577 | 41210 ft | 513 kts | 111° |
| 2026-05-05 16:04 | 57.90523 | -13.92100 | 41206 ft | 513 kts | 111° |
| 2026-05-05 16:04 | 57.87899 | -13.79642 | 41211 ft | 512 kts | 111° |
| 2026-05-05 16:05 | 57.85263 | -13.67207 | 41205 ft | 512 kts | 111° |
| 2026-05-05 16:05 | 57.82617 | -13.54799 | 41209 ft | 512 kts | 111° |
| 2026-05-05 16:06 | 57.79959 | -13.42405 | 41205 ft | 512 kts | 112° |
| 2026-05-05 16:06 | 57.77293 | -13.30051 | 41210 ft | 511 kts | 112° |
| 2026-05-05 16:07 | 57.74613 | -13.17704 | 41207 ft | 511 kts | 112° |
| 2026-05-05 16:07 | 57.71920 | -13.05374 | 41208 ft | 511 kts | 112° |
| 2026-05-05 16:08 | 57.69223 | -12.93095 | 41205 ft | 511 kts | 112° |
| 2026-05-05 16:08 | 57.66526 | -12.80893 | 41211 ft | 511 kts | 112° |
| 2026-05-05 16:09 | 57.63804 | -12.68646 | 41205 ft | 511 kts | 112° |
| 2026-05-05 16:09 | 57.61053 | -12.56339 | 41210 ft | 511 kts | 112° |
| 2026-05-05 16:10 | 57.58324 | -12.44208 | 41206 ft | 510 kts | 112° |
| 2026-05-05 16:10 | 57.55568 | -12.32022 | 41208 ft | 510 kts | 113° |
| 2026-05-05 16:11 | 57.52798 | -12.19845 | 41204 ft | 510 kts | 113° |
| 2026-05-05 16:12 | 57.47232 | -11.95585 | 41204 ft | 510 kts | 113° |
| 2026-05-05 16:13 | 57.40213 | -11.65380 | 41200 ft | 509 kts | 114° |
| 2026-05-05 16:13 | 57.37387 | -11.53339 | 41203 ft | 509 kts | 114° |
| 2026-05-05 16:14 | 57.31703 | -11.29323 | 41201 ft | 509 kts | 114° |
| 2026-05-05 16:15 | 57.25979 | -11.05404 | 41196 ft | 509 kts | 114° |
| 2026-05-05 16:16 | 57.20210 | -10.81559 | 41199 ft | 508 kts | 114° |
| 2026-05-05 16:17 | 57.15873 | -10.63804 | 41195 ft | 508 kts | 115° |
| 2026-05-05 16:18 | 57.11493 | -10.46015 | 41187 ft | 508 kts | 115° |
| 2026-05-05 16:19 | 57.07087 | -10.28265 | 41186 ft | 508 kts | 115° |
| 2026-05-05 16:19 | 57.02662 | -10.10571 | 41187 ft | 508 kts | 115° |
| 2026-05-05 16:20 | 56.97871 | -9.86242 | 41190 ft | 508 kts | 104° |
| 2026-05-05 16:22 | 56.93037 | -9.55106 | 41174 ft | 508 kts | 115° |
| 2026-05-05 16:22 | 56.89411 | -9.44077 | 41181 ft | 505 kts | 130° |
| 2026-05-05 16:23 | 56.84664 | -9.34772 | 41173 ft | 504 kts | 136° |
| 2026-05-05 16:23 | 56.77260 | -9.21140 | 41173 ft | 504 kts | 136° |
| 2026-05-05 16:24 | 56.72355 | -9.12008 | 41171 ft | 504 kts | 136° |
| 2026-05-05 16:25 | 56.65019 | -8.98288 | 41164 ft | 504 kts | 136° |
| 2026-05-05 16:25 | 56.57666 | -8.84610 | 41159 ft | 504 kts | 136° |
| 2026-05-05 16:26 | 56.47850 | -8.66493 | 41163 ft | 503 kts | 136° |
| 2026-05-05 16:27 | 56.42933 | -8.57473 | 41160 ft | 503 kts | 136° |
| 2026-05-05 16:27 | 56.38019 | -8.48493 | 41151 ft | 502 kts | 136° |
| 2026-05-05 16:28 | 56.33104 | -8.39544 | 41154 ft | 502 kts | 136° |
| 2026-05-05 16:28 | 56.28184 | -8.30622 | 41152 ft | 501 kts | 136° |
| 2026-05-05 16:29 | 56.23261 | -8.21730 | 41147 ft | 501 kts | 136° |
| 2026-05-05 16:29 | 56.18340 | -8.12874 | 41150 ft | 500 kts | 136° |
| 2026-05-05 16:30 | 56.13417 | -8.04050 | 41145 ft | 500 kts | 137° |
| 2026-05-05 16:30 | 56.08490 | -7.95253 | 41140 ft | 500 kts | 137° |
| 2026-05-05 16:31 | 56.03557 | -7.86477 | 41244 ft | 501 kts | 137° |
| 2026-05-05 16:31 | 55.98603 | -7.77700 | 41141 ft | 502 kts | 137° |
| 2026-05-05 16:32 | 55.93663 | -7.68979 | 41134 ft | 502 kts | 137° |
| 2026-05-05 16:32 | 55.88696 | -7.60243 | 41127 ft | 501 kts | 137° |
| 2026-05-05 16:33 | 55.83728 | -7.51538 | 41124 ft | 501 kts | 137° |
| 2026-05-05 16:33 | 55.78759 | -7.42866 | 41124 ft | 500 kts | 137° |
| 2026-05-05 16:34 | 55.73790 | -7.34227 | 41124 ft | 500 kts | 137° |
| 2026-05-05 16:34 | 55.68817 | -7.25613 | 41117 ft | 499 kts | 137° |
| 2026-05-05 16:35 | 55.63842 | -7.17028 | 41112 ft | 499 kts | 137° |
| 2026-05-05 16:35 | 55.58864 | -7.08469 | 41111 ft | 499 kts | 137° |
| 2026-05-05 16:36 | 55.53880 | -6.99931 | 41108 ft | 499 kts | 137° |
| 2026-05-05 16:36 | 55.48892 | -6.91420 | 41104 ft | 499 kts | 137° |
| 2026-05-05 16:37 | 55.43893 | -6.82920 | 41106 ft | 499 kts | 137° |
| 2026-05-05 16:37 | 55.39738 | -6.75879 | 41098 ft | 499 kts | 138° |
| 2026-05-05 16:38 | 55.34738 | -6.67437 | 41096 ft | 499 kts | 138° |
| 2026-05-05 16:38 | 55.29732 | -6.59014 | 41099 ft | 498 kts | 138° |
| 2026-05-05 16:39 | 55.24914 | -6.50936 | 41093 ft | 498 kts | 138° |
| 2026-05-05 16:39 | 55.19896 | -6.42554 | 41093 ft | 498 kts | 138° |
| 2026-05-05 16:40 | 55.14876 | -6.34200 | 41086 ft | 498 kts | 138° |
| 2026-05-05 16:40 | 55.09844 | -6.25857 | 41090 ft | 498 kts | 138° |
| 2026-05-05 16:41 | 55.04810 | -6.17539 | 41079 ft | 498 kts | 138° |
| 2026-05-05 16:41 | 54.99805 | -6.09299 | 41071 ft | 498 kts | 138° |
| 2026-05-05 16:42 | 54.94769 | -6.01039 | 41076 ft | 497 kts | 138° |
| 2026-05-05 16:42 | 54.89731 | -5.92804 | 41074 ft | 497 kts | 138° |
| 2026-05-05 16:43 | 54.84686 | -5.84590 | 41070 ft | 497 kts | 139° |
| 2026-05-05 16:43 | 54.79639 | -5.76400 | 41068 ft | 496 kts | 139° |
| 2026-05-05 16:44 | 54.74595 | -5.68245 | 41075 ft | 496 kts | 139° |
| 2026-05-05 16:44 | 54.69546 | -5.60110 | 41071 ft | 496 kts | 139° |
| 2026-05-05 16:45 | 54.64491 | -5.51995 | 41067 ft | 496 kts | 139° |
| 2026-05-05 16:45 | 54.59430 | -5.43900 | 41063 ft | 495 kts | 139° |
| 2026-05-05 16:46 | 54.54376 | -5.35843 | 41060 ft | 495 kts | 139° |
| 2026-05-05 16:46 | 54.49310 | -5.27797 | 41056 ft | 495 kts | 139° |
| 2026-05-05 16:47 | 54.44236 | -5.19766 | 41052 ft | 495 kts | 139° |
| 2026-05-05 16:47 | 54.39170 | -5.11775 | 41048 ft | 495 kts | 139° |
| 2026-05-05 16:48 | 54.34089 | -5.03789 | 41050 ft | 495 kts | 139° |
| 2026-05-05 16:48 | 54.29038 | -4.95879 | 41061 ft | 495 kts | 139° |
| 2026-05-05 16:49 | 54.23950 | -4.87937 | 41043 ft | 495 kts | 139° |
| 2026-05-05 16:49 | 54.18863 | -4.80025 | 41039 ft | 494 kts | 139° |
| 2026-05-05 16:50 | 54.13775 | -4.72140 | 41057 ft | 494 kts | 139° |
| 2026-05-05 16:50 | 54.08678 | -4.64267 | 41054 ft | 494 kts | 139° |
| 2026-05-05 16:51 | 54.03579 | -4.56416 | 41036 ft | 494 kts | 139° |
| 2026-05-05 16:51 | 53.98478 | -4.48588 | 41051 ft | 494 kts | 139° |
| 2026-05-05 16:52 | 53.93378 | -4.40787 | 41048 ft | 493 kts | 139° |
| 2026-05-05 16:52 | 53.88721 | -4.32246 | 41037 ft | 495 kts | 128° |
| 2026-05-05 16:53 | 53.84853 | -4.22585 | 41033 ft | 495 kts | 125° |
| 2026-05-05 16:53 | 53.80971 | -4.12962 | 41030 ft | 495 kts | 126° |
| 2026-05-05 16:54 | 53.77021 | -4.03425 | 41026 ft | 495 kts | 126° |
| 2026-05-05 16:54 | 53.73069 | -3.93915 | 41032 ft | 495 kts | 126° |
| 2026-05-05 16:55 | 53.69121 | -3.84414 | 41033 ft | 494 kts | 126° |
| 2026-05-05 16:55 | 53.67143 | -3.79666 | 40889 ft | 492 kts | 125° |
| 2026-05-05 16:55 | 53.65181 | -3.74961 | 40958 ft | 489 kts | 125° |
| 2026-05-05 16:56 | 53.61295 | -3.65675 | 41033 ft | 483 kts | 125° |
| 2026-05-05 16:56 | 53.57420 | -3.56441 | 41038 ft | 483 kts | 125° |
| 2026-05-05 16:57 | 53.53541 | -3.47220 | 41048 ft | 483 kts | 125° |
| 2026-05-05 16:57 | 53.49652 | -3.38005 | 41051 ft | 483 kts | 126° |
| 2026-05-05 16:58 | 53.45756 | -3.28808 | 41045 ft | 484 kts | 126° |
| 2026-05-05 16:58 | 53.41848 | -3.19611 | 41038 ft | 485 kts | 126° |
| 2026-05-05 16:59 | 53.37914 | -3.10435 | 41049 ft | 485 kts | 127° |
| 2026-05-05 16:59 | 53.33873 | -3.01382 | 41049 ft | 485 kts | 127° |
| 2026-05-05 17:00 | 53.29814 | -2.92353 | 41043 ft | 486 kts | 127° |
| 2026-05-05 17:00 | 53.25781 | -2.83353 | 41051 ft | 486 kts | 127° |
| 2026-05-05 17:01 | 53.21700 | -2.74265 | 41050 ft | 487 kts | 127° |
| 2026-05-05 17:01 | 53.17655 | -2.65275 | 41034 ft | 488 kts | 127° |
| 2026-05-05 17:02 | 53.13542 | -2.56289 | 41027 ft | 488 kts | 127° |
| 2026-05-05 17:02 | 53.09693 | -2.46963 | 41026 ft | 488 kts | 124° |
| 2026-05-05 17:03 | 53.05931 | -2.37567 | 41014 ft | 488 kts | 124° |
| 2026-05-05 17:03 | 53.05432 | -2.36339 | 41014 ft | 488 kts | 124° |
| 2026-05-05 17:05 | 53.05041 | -2.35378 | 41019 ft | 488 kts | 124° |
| 2026-05-05 17:06 | 53.00449 | -2.27256 | 41001 ft | 483 kts | 148° |
| 2026-05-05 17:06 | 52.94712 | -2.21425 | 41010 ft | 483 kts | 149° |
| 2026-05-05 17:07 | 52.88928 | -2.15607 | 40251 ft | 493 kts | 149° |
| 2026-05-05 17:07 | 52.86021 | -2.12626 | 39571 ft | 490 kts | 148° |
| 2026-05-05 17:07 | 52.83136 | -2.09637 | 38832 ft | 489 kts | 148° |
| 2026-05-05 17:08 | 52.80260 | -2.06646 | 37915 ft | 488 kts | 148° |
| 2026-05-05 17:08 | 52.77396 | -2.03663 | 37053 ft | 485 kts | 147° |
| 2026-05-05 17:08 | 52.74552 | -2.00705 | 36216 ft | 482 kts | 147° |
| 2026-05-05 17:08 | 52.72688 | -1.98770 | 35627 ft | 477 kts | 147° |
| 2026-05-05 17:09 | 52.70358 | -1.96354 | 34853 ft | 478 kts | 147° |
| 2026-05-05 17:09 | 52.67537 | -1.93436 | 33837 ft | 479 kts | 147° |
| 2026-05-05 17:09 | 52.64746 | -1.90554 | 32662 ft | 472 kts | 147° |
| 2026-05-05 17:10 | 52.61960 | -1.87682 | 31556 ft | 474 kts | 147° |
| 2026-05-05 17:10 | 52.59154 | -1.84793 | 30562 ft | 473 kts | 148° |
| 2026-05-05 17:10 | 52.56384 | -1.81947 | 29755 ft | 468 kts | 148° |
| 2026-05-05 17:10 | 52.53645 | -1.79137 | 28883 ft | 463 kts | 149° |
| 2026-05-05 17:11 | 52.52762 | -1.78233 | 28625 ft | 462 kts | 149° |
| 2026-05-05 17:11 | 52.52001 | -1.77454 | 28418 ft | 469 kts | 149° |
| 2026-05-05 17:11 | 52.49158 | -1.74547 | 27609 ft | 487 kts | 149° |
| 2026-05-05 17:11 | 52.46301 | -1.71628 | 26797 ft | 481 kts | 149° |
| 2026-05-05 17:12 | 52.43485 | -1.68753 | 26011 ft | 463 kts | 149° |
| 2026-05-05 17:12 | 52.40848 | -1.66059 | 25285 ft | 436 kts | 150° |
| 2026-05-05 17:12 | 52.38288 | -1.63454 | 24603 ft | 431 kts | 150° |
| 2026-05-05 17:12 | 52.35741 | -1.60869 | 23915 ft | 430 kts | 151° |
| 2026-05-05 17:13 | 52.33235 | -1.58330 | 23160 ft | 427 kts | 151° |
| 2026-05-05 17:13 | 52.30689 | -1.55753 | 22386 ft | 423 kts | 150° |
| 2026-05-05 17:13 | 52.28206 | -1.53241 | 21699 ft | 418 kts | 150° |
| 2026-05-05 17:13 | 52.25749 | -1.50758 | 21031 ft | 413 kts | 150° |
| 2026-05-05 17:14 | 52.23348 | -1.48336 | 20393 ft | 409 kts | 150° |
| 2026-05-05 17:14 | 52.20972 | -1.45869 | 20091 ft | 404 kts | 147° |
| 2026-05-05 17:14 | 52.18720 | -1.43009 | 19501 ft | 414 kts | 141° |
| 2026-05-05 17:14 | 52.16554 | -1.39906 | 19031 ft | 412 kts | 140° |
| 2026-05-05 17:15 | 52.14443 | -1.36799 | 18603 ft | 407 kts | 139° |
| 2026-05-05 17:15 | 52.12348 | -1.33747 | 18189 ft | 402 kts | 140° |
| 2026-05-05 17:15 | 52.10256 | -1.30758 | 17746 ft | 400 kts | 140° |
| 2026-05-05 17:15 | 52.08155 | -1.27803 | 17314 ft | 397 kts | 141° |
| 2026-05-05 17:16 | 52.06070 | -1.24896 | 16901 ft | 394 kts | 141° |
| 2026-05-05 17:16 | 52.03992 | -1.22015 | 16499 ft | 393 kts | 141° |
| 2026-05-05 17:16 | 52.03290 | -1.21044 | 16367 ft | 392 kts | 141° |
| 2026-05-05 17:16 | 52.02140 | -1.19454 | 16117 ft | 392 kts | 141° |
| 2026-05-05 17:17 | 52.00066 | -1.16584 | 15732 ft | 391 kts | 141° |
| 2026-05-05 17:17 | 51.97994 | -1.13723 | 15349 ft | 391 kts | 141° |
| 2026-05-05 17:17 | 51.95922 | -1.10865 | 14954 ft | 391 kts | 141° |
| 2026-05-05 17:17 | 51.93842 | -1.07999 | 14450 ft | 394 kts | 141° |
| 2026-05-05 17:18 | 51.91748 | -1.05113 | 13937 ft | 394 kts | 141° |
| 2026-05-05 17:18 | 51.89664 | -1.02245 | 13391 ft | 391 kts | 141° |
| 2026-05-05 17:18 | 51.87604 | -0.99416 | 12842 ft | 386 kts | 141° |
| 2026-05-05 17:18 | 51.85625 | -0.96578 | 12321 ft | 371 kts | 135° |
| 2026-05-05 17:19 | 51.84261 | -0.93277 | 11852 ft | 337 kts | 116° |
| 2026-05-05 17:19 | 51.83331 | -0.89981 | 11446 ft | 309 kts | 116° |
| 2026-05-05 17:19 | 51.82435 | -0.86956 | 11052 ft | 288 kts | 117° |
| 2026-05-05 17:19 | 51.81581 | -0.84131 | 10694 ft | 273 kts | 117° |
| 2026-05-05 17:20 | 51.80730 | -0.81340 | 10373 ft | 285 kts | 117° |
| 2026-05-05 17:20 | 51.79846 | -0.78452 | 10008 ft | 288 kts | 117° |
| 2026-05-05 17:20 | 51.78946 | -0.75513 | 9617 ft | 294 kts | 117° |
| 2026-05-05 17:20 | 51.78038 | -0.72555 | 9206 ft | 295 kts | 117° |
| 2026-05-05 17:21 | 51.77125 | -0.69587 | 8796 ft | 295 kts | 117° |
| 2026-05-05 17:21 | 51.76213 | -0.66622 | 8414 ft | 295 kts | 117° |
| 2026-05-05 17:21 | 51.75299 | -0.63656 | 8051 ft | 294 kts | 117° |
| 2026-05-05 17:22 | 51.73794 | -0.58786 | 7512 ft | 291 kts | 117° |
| 2026-05-05 17:22 | 51.72333 | -0.55384 | 7039 ft | 265 kts | 147° |
| 2026-05-05 17:22 | 51.71240 | -0.54659 | 6992 ft | 244 kts | 175° |
| 2026-05-05 17:22 | 51.69580 | -0.54704 | 6954 ft | 240 kts | 182° |
| 2026-05-05 17:23 | 51.67900 | -0.54689 | 6957 ft | 244 kts | 180° |
| 2026-05-05 17:23 | 51.66195 | -0.54606 | 6939 ft | 245 kts | 179° |
| 2026-05-05 17:23 | 51.64492 | -0.54520 | 6934 ft | 244 kts | 179° |
| 2026-05-05 17:23 | 51.62829 | -0.54829 | 6928 ft | 241 kts | 201° |
| 2026-05-05 17:24 | 51.61424 | -0.56231 | 6943 ft | 238 kts | 227° |
| 2026-05-05 17:24 | 51.60535 | -0.58443 | 6951 ft | 237 kts | 249° |
| 2026-05-05 17:24 | 51.60152 | -0.61006 | 6976 ft | 235 kts | 263° |
| 2026-05-05 17:24 | 51.59977 | -0.63636 | 6964 ft | 238 kts | 265° |
| 2026-05-05 17:25 | 51.59838 | -0.66295 | 6826 ft | 241 kts | 265° |
| 2026-05-05 17:25 | 51.59742 | -0.68087 | 6632 ft | 243 kts | 265° |
| 2026-05-05 17:25 | 51.59535 | -0.71668 | 6283 ft | 238 kts | 265° |
| 2026-05-05 17:25 | 51.59376 | -0.74306 | 6052 ft | 237 kts | 265° |
| 2026-05-05 17:26 | 51.59090 | -0.76871 | 5731 ft | 227 kts | 247° |
| 2026-05-05 17:26 | 51.58131 | -0.78730 | 5447 ft | 211 kts | 213° |
| 2026-05-05 17:26 | 51.56829 | -0.79612 | 5152 ft | 197 kts | 193° |
| 2026-05-05 17:26 | 51.55510 | -0.79754 | 4882 ft | 186 kts | 178° |
| 2026-05-05 17:27 | 51.54250 | -0.79651 | 4641 ft | 183 kts | 176° |
| 2026-05-05 17:27 | 51.52983 | -0.79538 | 4400 ft | 175 kts | 176° |
| 2026-05-05 17:27 | 51.51810 | -0.79437 | 4138 ft | 167 kts | 176° |
| 2026-05-05 17:27 | 51.50655 | -0.79335 | 3874 ft | 163 kts | 176° |
| 2026-05-05 17:28 | 51.49547 | -0.79168 | 3654 ft | 162 kts | 164° |
| 2026-05-05 17:28 | 51.48550 | -0.78353 | 3443 ft | 156 kts | 131° |
| 2026-05-05 17:28 | 51.48095 | -0.76817 | 3358 ft | 153 kts | 105° |
| 2026-05-05 17:28 | 51.47778 | -0.75133 | 3250 ft | 157 kts | 93° |
| 2026-05-05 17:29 | 51.47717 | -0.73411 | 3130 ft | 153 kts | 89° |
| 2026-05-05 17:29 | 51.47686 | -0.71761 | 2947 ft | 142 kts | 88° |
| 2026-05-05 17:29 | 51.47677 | -0.70208 | 2755 ft | 137 kts | 86° |
| 2026-05-05 17:29 | 51.47678 | -0.68724 | 2566 ft | 133 kts | 86° |
| 2026-05-05 17:30 | 51.47682 | -0.67210 | 2388 ft | 135 kts | 86° |
| 2026-05-05 17:30 | 51.47687 | -0.65709 | 2206 ft | 135 kts | 86° |
| 2026-05-05 17:30 | 51.47692 | -0.64221 | 2031 ft | 135 kts | 86° |
| 2026-05-05 17:30 | 51.47698 | -0.62706 | 1829 ft | 133 kts | 86° |
| 2026-05-05 17:31 | 51.47703 | -0.61223 | 1668 ft | 133 kts | 86° |
| 2026-05-05 17:31 | 51.47707 | -0.59749 | 1482 ft | 134 kts | 86° |
| 2026-05-05 17:31 | 51.47714 | -0.58276 | 1300 ft | 131 kts | 86° |
| 2026-05-05 17:31 | 51.47720 | -0.56801 | 1123 ft | 132 kts | 86° |
| 2026-05-05 17:32 | 51.47724 | -0.55371 | 941 ft | 133 kts | 85° |
| 2026-05-05 17:32 | 51.47729 | -0.53874 | 780 ft | 136 kts | 86° |
| 2026-05-05 17:32 | 51.47734 | -0.52358 | 590 ft | 136 kts | 85° |
| 2026-05-05 17:32 | 51.47745 | -0.50839 | 405 ft | 134 kts | 85° |
| 2026-05-05 17:33 | 51.47749 | -0.49347 | 229 ft | 131 kts | 86° |
| 2026-05-05 17:33 | 51.47752 | -0.47944 | 93 ft | 116 kts | 87° |
| 2026-05-05 17:33 | 51.47757 | -0.46848 | 96 ft | 77 kts | 90° |
| 2026-05-05 17:33 | 51.47758 | -0.46229 | 94 ft | 41 kts | 89° |
| 2026-05-05 17:34 | 51.47760 | -0.45786 | 92 ft | 37 kts | 90° |
| 2026-05-05 17:34 | 51.47733 | -0.45489 | 95 ft | 16 kts | 128° |
| 2026-05-05 17:34 | 51.47657 | -0.45466 | 92 ft | 2 kts | 182° |
| 2026-05-05 17:35 | 51.47654 | -0.45466 | 91 ft | 3 kts | 180° |
| 2026-05-05 17:35 | 51.47608 | -0.45409 | 94 ft | 14 kts | 124° |
| 2026-05-05 17:35 | 51.47597 | -0.45219 | 92 ft | 22 kts | 89° |
| 2026-05-05 17:35 | 51.47598 | -0.44957 | 91 ft | 22 kts | 89° |
| 2026-05-05 17:36 | 51.47598 | -0.44748 | 91 ft | 14 kts | 92° |
| 2026-05-05 17:36 | 51.47528 | -0.44629 | 94 ft | 17 kts | 140° |
| 2026-05-05 17:36 | 51.47444 | -0.44564 | 94 ft | 14 kts | 173° |
| 2026-05-05 17:36 | 51.47360 | -0.44558 | 94 ft | 6 kts | 166° |
| 2026-05-05 17:37 | 51.47341 | -0.44498 | 94 ft | 6 kts | 96° |
| 2026-05-05 17:37 | 51.47339 | -0.44443 | 91 ft | 1 kts | 90° |
| 2026-05-05 17:37 | 51.47339 | -0.44428 | 95 ft | 0 kts | 89° |
| 2026-05-05 17:37 | 51.47339 | -0.44423 | 95 ft | 1 kts | 89° |
| 2026-05-05 17:38 | 51.47339 | -0.44421 | 95 ft | 0 kts | 89° |